<?xml version='1.0' encoding='UTF-8'?><gpx version="1.1" creator="JPX - https://github.com/jenetics/jpx" xmlns="http://www.topografix.com/GPX/1/1"><trk><trkseg><trkpt lat="43.137264353831796" lon="12.33315974357977"><ele>523.0</ele><time>2026-04-09T11:25:56Z</time></trkpt><trkpt lat="43.13720321864956" lon="12.333079588570374"><ele>523.0</ele><time>2026-04-09T11:25:59Z</time></trkpt><trkpt lat="43.13713729313289" lon="12.333007082678174"><ele>523.0</ele><time>2026-04-09T11:26:24Z</time></trkpt><trkpt lat="43.13708534525913" lon="12.332945494152023"><ele>523.0</ele><time>2026-04-09T11:26:28.001Z</time></trkpt><trkpt lat="43.137026124195096" lon="12.332857999971582"><ele>523.0</ele><time>2026-04-09T11:26:31.001Z</time></trkpt><trkpt lat="43.13698009630489" lon="12.332772419977312"><ele>523.0</ele><time>2026-04-09T11:26:33.001Z</time></trkpt><trkpt lat="43.136924255297224" lon="12.332664508863427"><ele>523.4</ele><time>2026-04-09T11:26:35.001Z</time></trkpt><trkpt lat="43.136860595995245" lon="12.332546263868279"><ele>523.8</ele><time>2026-04-09T11:26:37.001Z</time></trkpt><trkpt lat="43.13679340637288" lon="12.332425614508841"><ele>524.2</ele><time>2026-04-09T11:26:39.001Z</time></trkpt><trkpt lat="43.136723657820994" lon="12.332300370198247"><ele>524.6</ele><time>2026-04-09T11:26:41.001Z</time></trkpt><trkpt lat="43.136661057631436" lon="12.332178650704012"><ele>525.0</ele><time>2026-04-09T11:26:43.001Z</time></trkpt><trkpt lat="43.13660375423113" lon="12.332057985259878"><ele>523.6</ele><time>2026-04-09T11:26:45.001Z</time></trkpt><trkpt lat="43.1365432823476" lon="12.331924896462112"><ele>522.2</ele><time>2026-04-09T11:26:47.001Z</time></trkpt><trkpt lat="43.13649892971809" lon="12.331807430639685"><ele>520.8</ele><time>2026-04-09T11:26:49.001Z</time></trkpt><trkpt lat="43.136466199571146" lon="12.331688057779127"><ele>519.4</ele><time>2026-04-09T11:26:51.001Z</time></trkpt><trkpt lat="43.13646303102037" lon="12.331583998311983"><ele>518.0</ele><time>2026-04-09T11:26:53.001Z</time></trkpt><trkpt lat="43.136469298662426" lon="12.331480593202551"><ele>519.0</ele><time>2026-04-09T11:26:55.001Z</time></trkpt><trkpt lat="43.13647763641157" lon="12.331369827717403"><ele>520.0</ele><time>2026-04-09T11:26:57.001Z</time></trkpt><trkpt lat="43.13649241379424" lon="12.331264264242025"><ele>521.0</ele><time>2026-04-09T11:26:59.001Z</time></trkpt><trkpt lat="43.136514128550665" lon="12.331153878893504"><ele>522.0</ele><time>2026-04-09T11:27:01.001Z</time></trkpt><trkpt lat="43.136527522040794" lon="12.331039788571147"><ele>523.0</ele><time>2026-04-09T11:27:03.001Z</time></trkpt><trkpt lat="43.136544734616734" lon="12.330905275675118"><ele>524.0</ele><time>2026-04-09T11:27:05.001Z</time></trkpt><trkpt lat="43.13655987221208" lon="12.330763355859617"><ele>527.8</ele><time>2026-04-09T11:27:07.001Z</time></trkpt><trkpt lat="43.13657266257511" lon="12.33060806533286"><ele>531.5999999999999</ele><time>2026-04-09T11:27:09.001Z</time></trkpt><trkpt lat="43.13658389011443" lon="12.330449579099087"><ele>535.4</ele><time>2026-04-09T11:27:11.001Z</time></trkpt><trkpt lat="43.13658793230123" lon="12.330362823280291"><ele>539.1999999999999</ele><time>2026-04-09T11:27:12.001Z</time></trkpt><trkpt lat="43.136588339371016" lon="12.330204246265007"><ele>543.0</ele><time>2026-04-09T11:27:14.001Z</time></trkpt><trkpt lat="43.13657425727712" lon="12.330042636929974"><ele>541.6</ele><time>2026-04-09T11:27:16.001Z</time></trkpt><trkpt lat="43.13654320898283" lon="12.329893660811424"><ele>540.1999999999999</ele><time>2026-04-09T11:27:18.001Z</time></trkpt><trkpt lat="43.136494576943626" lon="12.329761455957247"><ele>538.8</ele><time>2026-04-09T11:27:20.001Z</time></trkpt><trkpt lat="43.1364234605862" lon="12.329656405606823"><ele>537.4</ele><time>2026-04-09T11:27:22.001Z</time></trkpt><trkpt lat="43.136361499885744" lon="12.329571537254408"><ele>536.0</ele><time>2026-04-09T11:27:24.001Z</time></trkpt><trkpt lat="43.1363048868111" lon="12.329484505431163"><ele>536.0</ele><time>2026-04-09T11:27:26.001Z</time></trkpt><trkpt lat="43.136290749664525" lon="12.329391159848052"><ele>536.0</ele><time>2026-04-09T11:27:28.001Z</time></trkpt><trkpt lat="43.13629361333861" lon="12.32928709896182"><ele>536.0</ele><time>2026-04-09T11:27:30.002Z</time></trkpt><trkpt lat="43.13631789527902" lon="12.329162137555846"><ele>536.0</ele><time>2026-04-09T11:27:33.002Z</time></trkpt><trkpt lat="43.136362470156406" lon="12.329051888566816"><ele>536.0</ele><time>2026-04-09T11:27:36.002Z</time></trkpt><trkpt lat="43.136427531416295" lon="12.329035351775584"><ele>536.0</ele><time>2026-04-09T11:27:38.002Z</time></trkpt><trkpt lat="43.136479530929115" lon="12.329096359499056"><ele>536.0</ele><time>2026-04-09T11:27:40.002Z</time></trkpt><trkpt lat="43.13653488526391" lon="12.329153199581306"><ele>536.0</ele><time>2026-04-09T11:27:42.002Z</time></trkpt><trkpt lat="43.13661022467934" lon="12.329155229811427"><ele>536.0</ele><time>2026-04-09T11:27:44.001Z</time></trkpt><trkpt lat="43.13669090541794" lon="12.32914236082599"><ele>536.0</ele><time>2026-04-09T11:27:47.001Z</time></trkpt><trkpt lat="43.136751384373554" lon="12.329114248823526"><ele>536.0</ele><time>2026-04-09T11:27:49.001Z</time></trkpt><trkpt lat="43.13678941086182" lon="12.329040073791813"><ele>536.0</ele><time>2026-04-09T11:27:51.001Z</time></trkpt><trkpt lat="43.136838092098216" lon="12.328951062929818"><ele>536.0</ele><time>2026-04-09T11:27:53.001Z</time></trkpt><trkpt lat="43.13691008985796" lon="12.3290330099709"><ele>539.6666666666666</ele><time>2026-04-09T11:27:57.001Z</time></trkpt><trkpt lat="43.13697128201647" lon="12.329107415764764"><ele>543.3333333333333</ele><time>2026-04-09T11:28:01.001Z</time></trkpt><trkpt lat="43.13703716288541" lon="12.329193085201139"><ele>547.0</ele><time>2026-04-09T11:28:03.001Z</time></trkpt><trkpt lat="43.13709465294495" lon="12.329283827471714"><ele>550.6666666666666</ele><time>2026-04-09T11:28:05.001Z</time></trkpt><trkpt lat="43.13713302158943" lon="12.329356795562685"><ele>554.3333333333334</ele><time>2026-04-09T11:28:07.001Z</time></trkpt><trkpt lat="43.13717140323788" lon="12.329429268789347"><ele>558.0</ele><time>2026-04-09T11:28:09.001Z</time></trkpt><trkpt lat="43.13721277238115" lon="12.329522700770287"><ele>558.0</ele><time>2026-04-09T11:28:12.001Z</time></trkpt><trkpt lat="43.13725121842388" lon="12.32961919009918"><ele>558.0</ele><time>2026-04-09T11:28:16.001Z</time></trkpt><trkpt lat="43.13729741190619" lon="12.32973737335449"><ele>558.0</ele><time>2026-04-09T11:29:11.002Z</time></trkpt><trkpt lat="43.137341735791914" lon="12.329823875391586"><ele>558.0</ele><time>2026-04-09T11:29:14.002Z</time></trkpt><trkpt lat="43.137390928833725" lon="12.329902041251987"><ele>558.0</ele><time>2026-04-09T11:29:16.002Z</time></trkpt><trkpt lat="43.137466973772675" lon="12.33000941087927"><ele>558.0</ele><time>2026-04-09T11:29:18.002Z</time></trkpt><trkpt lat="43.13772504945876" lon="12.329870134137858"><ele>558.3333333333334</ele><time>2026-04-09T11:29:19.002Z</time></trkpt><trkpt lat="43.13780706390462" lon="12.329886483351332"><ele>558.6666666666666</ele><time>2026-04-09T11:29:20.002Z</time></trkpt><trkpt lat="43.1378860664526" lon="12.32990391736913"><ele>559.0</ele><time>2026-04-09T11:29:21.002Z</time></trkpt><trkpt lat="43.13797210736315" lon="12.329921511169186"><ele>559.3333333333333</ele><time>2026-04-09T11:29:22.002Z</time></trkpt><trkpt lat="43.138044940662105" lon="12.329934343696033"><ele>559.6666666666666</ele><time>2026-04-09T11:29:23.002Z</time></trkpt><trkpt lat="43.13812567986736" lon="12.32994515028424"><ele>560.0</ele><time>2026-04-09T11:29:24.002Z</time></trkpt><trkpt lat="43.13820036274067" lon="12.329955994230955"><ele>559.6</ele><time>2026-04-09T11:29:25.002Z</time></trkpt><trkpt lat="43.13828029280485" lon="12.329977381867405"><ele>559.2</ele><time>2026-04-09T11:29:26.002Z</time></trkpt><trkpt lat="43.13838294117269" lon="12.330042568064034"><ele>558.8</ele><time>2026-04-09T11:29:28.002Z</time></trkpt><trkpt lat="43.138466418758185" lon="12.33013590205623"><ele>558.4</ele><time>2026-04-09T11:29:30.002Z</time></trkpt><trkpt lat="43.13851123051452" lon="12.330197170747988"><ele>558.0</ele><time>2026-04-09T11:29:32.002Z</time></trkpt><trkpt lat="43.13858687172382" lon="12.330327530161435"><ele>558.0</ele><time>2026-04-09T11:29:34.002Z</time></trkpt><trkpt lat="43.138622901544984" lon="12.330405844459595"><ele>558.0</ele><time>2026-04-09T11:29:35.002Z</time></trkpt><trkpt lat="43.13866690938775" lon="12.330479244830471"><ele>558.0</ele><time>2026-04-09T11:29:36.002Z</time></trkpt><trkpt lat="43.138751354202356" lon="12.33060051065973"><ele>558.0</ele><time>2026-04-09T11:29:38.002Z</time></trkpt><trkpt lat="43.13881876300994" lon="12.330643683438666"><ele>558.0</ele><time>2026-04-09T11:29:39.002Z</time></trkpt><trkpt lat="43.13889692467709" lon="12.330671108988106"><ele>558.0</ele><time>2026-04-09T11:29:40.002Z</time></trkpt><trkpt lat="43.138985067408456" lon="12.330706616060061"><ele>558.5</ele><time>2026-04-09T11:29:41.002Z</time></trkpt><trkpt lat="43.13907683371786" lon="12.330718043302882"><ele>559.0</ele><time>2026-04-09T11:29:42.002Z</time></trkpt><trkpt lat="43.1391657024345" lon="12.33072876453793"><ele>559.5</ele><time>2026-04-09T11:29:43.002Z</time></trkpt><trkpt lat="43.139258436322024" lon="12.330752163961305"><ele>560.0</ele><time>2026-04-09T11:29:45.002Z</time></trkpt><trkpt lat="43.13930090023114" lon="12.330683082296579"><ele>560.5</ele><time>2026-04-09T11:29:56.001Z</time></trkpt><trkpt lat="43.13938158296297" lon="12.33062292111182"><ele>561.0</ele><time>2026-04-09T11:29:58.001Z</time></trkpt><trkpt lat="43.13945694444257" lon="12.330520920293687"><ele>559.2</ele><time>2026-04-09T11:30:00.001Z</time></trkpt><trkpt lat="43.13949605225351" lon="12.330452832071817"><ele>557.4000000000001</ele><time>2026-04-09T11:30:01.001Z</time></trkpt><trkpt lat="43.139544435892034" lon="12.330391754290847"><ele>555.6</ele><time>2026-04-09T11:30:02.001Z</time></trkpt><trkpt lat="43.139603516909254" lon="12.33034479415628"><ele>553.8000000000001</ele><time>2026-04-09T11:30:03.001Z</time></trkpt><trkpt lat="43.13971579911053" lon="12.330249367239357"><ele>552.0</ele><time>2026-04-09T11:30:05.001Z</time></trkpt><trkpt lat="43.13982743030246" lon="12.330188444477429"><ele>553.6</ele><time>2026-04-09T11:30:07.001Z</time></trkpt><trkpt lat="43.13994389116265" lon="12.33012627351967"><ele>555.2</ele><time>2026-04-09T11:30:09.001Z</time></trkpt><trkpt lat="43.14005073525056" lon="12.330020892232136"><ele>556.8</ele><time>2026-04-09T11:30:11.001Z</time></trkpt><trkpt lat="43.14010823930969" lon="12.329967878611228"><ele>558.4</ele><time>2026-04-09T11:30:12.001Z</time></trkpt><trkpt lat="43.14016866641704" lon="12.329915130656635"><ele>560.0</ele><time>2026-04-09T11:30:13.001Z</time></trkpt><trkpt lat="43.1402241674585" lon="12.329836334858461"><ele>560.0</ele><time>2026-04-09T11:30:14.001Z</time></trkpt><trkpt lat="43.14030870213987" lon="12.329739447398621"><ele>560.0</ele><time>2026-04-09T11:30:16.001Z</time></trkpt><trkpt lat="43.14042908078705" lon="12.329717220094087"><ele>560.0</ele><time>2026-04-09T11:30:18.001Z</time></trkpt><trkpt lat="43.140497923678296" lon="12.329708567660285"><ele>560.0</ele><time>2026-04-09T11:30:19.001Z</time></trkpt><trkpt lat="43.14059701656072" lon="12.329706641635207"><ele>560.0</ele><time>2026-04-09T11:30:21.001Z</time></trkpt><trkpt lat="43.14070144780577" lon="12.329780546606628"><ele>560.5</ele><time>2026-04-09T11:30:23.001Z</time></trkpt><trkpt lat="43.140774312014095" lon="12.329808774620432"><ele>561.0</ele><time>2026-04-09T11:30:24.001Z</time></trkpt><trkpt lat="43.14084653849352" lon="12.329833383351316"><ele>561.5</ele><time>2026-04-09T11:30:25.001Z</time></trkpt><trkpt lat="43.14092238962589" lon="12.329858639370533"><ele>562.0</ele><time>2026-04-09T11:30:26.001Z</time></trkpt><trkpt lat="43.14099546326771" lon="12.329883202100664"><ele>562.5</ele><time>2026-04-09T11:30:27.001Z</time></trkpt><trkpt lat="43.14108607642904" lon="12.329931841068882"><ele>563.0</ele><time>2026-04-09T11:30:29.001Z</time></trkpt><trkpt lat="43.14117829914535" lon="12.330024265026383"><ele>563.0</ele><time>2026-04-09T11:30:31.001Z</time></trkpt><trkpt lat="43.141289752845445" lon="12.330095387182851"><ele>563.0</ele><time>2026-04-09T11:30:33.001Z</time></trkpt><trkpt lat="43.14135961151622" lon="12.330209195979998"><ele>563.0</ele><time>2026-04-09T11:30:35.001Z</time></trkpt><trkpt lat="43.14143483400161" lon="12.330225477229696"><ele>563.0</ele><time>2026-04-09T11:30:36.001Z</time></trkpt><trkpt lat="43.14152477200349" lon="12.330257492324497"><ele>563.0</ele><time>2026-04-09T11:30:37.001Z</time></trkpt><trkpt lat="43.14159954038229" lon="12.330340558481465"><ele>561.0</ele><time>2026-04-09T11:30:38.001Z</time></trkpt><trkpt lat="43.141663842319325" lon="12.330382565383157"><ele>559.0</ele><time>2026-04-09T11:30:40.001Z</time></trkpt><trkpt lat="43.14173600819851" lon="12.330412289987777"><ele>557.0</ele><time>2026-04-09T11:30:43.001Z</time></trkpt><trkpt lat="43.14181555218969" lon="12.330416353212032"><ele>555.0</ele><time>2026-04-09T11:31:10.002Z</time></trkpt><trkpt lat="43.14188662162067" lon="12.330373413776318"><ele>553.0</ele><time>2026-04-09T11:31:12.002Z</time></trkpt><trkpt lat="43.14194399660013" lon="12.330325607375494"><ele>551.0</ele><time>2026-04-09T11:31:15.002Z</time></trkpt><trkpt lat="43.1420173024451" lon="12.330303561381399"><ele>549.0</ele><time>2026-04-09T11:31:17.002Z</time></trkpt><trkpt lat="43.14208315856356" lon="12.330296480983183"><ele>549.0</ele><time>2026-04-09T11:31:19.002Z</time></trkpt><trkpt lat="43.14216149460842" lon="12.330245398833933"><ele>549.0</ele><time>2026-04-09T11:31:24.002Z</time></trkpt><trkpt lat="43.142232476363944" lon="12.330220686584163"><ele>549.0</ele><time>2026-04-09T11:31:27.002Z</time></trkpt><trkpt lat="43.14228241115487" lon="12.33013904197669"><ele>549.0</ele><time>2026-04-09T11:31:30.002Z</time></trkpt><trkpt lat="43.14232946514633" lon="12.330074871593395"><ele>549.0</ele><time>2026-04-09T11:31:33.002Z</time></trkpt><trkpt lat="43.14238249926903" lon="12.329996631486258"><ele>549.0</ele><time>2026-04-09T11:31:35.002Z</time></trkpt><trkpt lat="43.142433758641324" lon="12.329921558450266"><ele>546.8571428571429</ele><time>2026-04-09T11:31:38.002Z</time></trkpt><trkpt lat="43.14249243543486" lon="12.32988576503637"><ele>544.7142857142858</ele><time>2026-04-09T11:31:42.002Z</time></trkpt><trkpt lat="43.142556106290535" lon="12.32984673417527"><ele>542.5714285714287</ele><time>2026-04-09T11:31:46.002Z</time></trkpt><trkpt lat="43.14262576938457" lon="12.329786118281008"><ele>540.4285714285714</ele><time>2026-04-09T11:31:50.002Z</time></trkpt><trkpt lat="43.142668521132016" lon="12.329713595678848"><ele>538.2857142857143</ele><time>2026-04-09T11:31:52.002Z</time></trkpt><trkpt lat="43.142721031552966" lon="12.329639029841124"><ele>536.1428571428572</ele><time>2026-04-09T11:31:54.002Z</time></trkpt><trkpt lat="43.142778816121066" lon="12.32956729039398"><ele>534.0</ele><time>2026-04-09T11:32:29.001Z</time></trkpt><trkpt lat="43.142840457260874" lon="12.329511879064716"><ele>532.5</ele><time>2026-04-09T11:32:31.001Z</time></trkpt><trkpt lat="43.14289262167557" lon="12.329447774691007"><ele>531.0</ele><time>2026-04-09T11:32:33.001Z</time></trkpt><trkpt lat="43.14297867606816" lon="12.32937617729868"><ele>529.5</ele><time>2026-04-09T11:32:35.001Z</time></trkpt><trkpt lat="43.14303018192741" lon="12.329324962690798"><ele>528.0</ele><time>2026-04-09T11:32:36.001Z</time></trkpt><trkpt lat="43.14308878617445" lon="12.329263150964996"><ele>526.5</ele><time>2026-04-09T11:32:38.001Z</time></trkpt><trkpt lat="43.143179155444486" lon="12.329187079083349"><ele>525.0</ele><time>2026-04-09T11:32:40.001Z</time></trkpt><trkpt lat="43.14327839592392" lon="12.329148310777223"><ele>524.1666666666666</ele><time>2026-04-09T11:32:42.001Z</time></trkpt><trkpt lat="43.143354437634606" lon="12.329117547682877"><ele>523.3333333333334</ele><time>2026-04-09T11:32:44.001Z</time></trkpt><trkpt lat="43.1434071345543" lon="12.329033573313417"><ele>522.5</ele><time>2026-04-09T11:32:47.001Z</time></trkpt><trkpt lat="43.1434637891152" lon="12.328961306107452"><ele>521.6666666666667</ele><time>2026-04-09T11:32:49.001Z</time></trkpt><trkpt lat="43.1434621097697" lon="12.32886724839844"><ele>520.8333333333334</ele><time>2026-04-09T11:32:52.001Z</time></trkpt><trkpt lat="43.14337831512122" lon="12.328781288109957"><ele>520.0</ele><time>2026-04-09T11:32:55.001Z</time></trkpt><trkpt lat="43.14332885950111" lon="12.328692876065677"><ele>518.0</ele><time>2026-04-09T11:32:57.001Z</time></trkpt><trkpt lat="43.143268922416446" lon="12.328653668141575"><ele>516.0</ele><time>2026-04-09T11:33:00.001Z</time></trkpt><trkpt lat="43.143177231585064" lon="12.32860772012246"><ele>514.0</ele><time>2026-04-09T11:33:04.001Z</time></trkpt><trkpt lat="43.143087994194595" lon="12.328582483848034"><ele>512.0</ele><time>2026-04-09T11:33:07.001Z</time></trkpt><trkpt lat="43.142982464076496" lon="12.328625213241935"><ele>510.0</ele><time>2026-04-09T11:33:09.001Z</time></trkpt><trkpt lat="43.142889189972145" lon="12.328624940870434"><ele>510.0</ele><time>2026-04-09T11:33:11.001Z</time></trkpt><trkpt lat="43.14280289996288" lon="12.328612170173411"><ele>510.0</ele><time>2026-04-09T11:33:13.001Z</time></trkpt><trkpt lat="43.14272380341231" lon="12.328600779363262"><ele>510.0</ele><time>2026-04-09T11:33:15.001Z</time></trkpt><trkpt lat="43.142639689116336" lon="12.328628319609999"><ele>510.0</ele><time>2026-04-09T11:33:18.001Z</time></trkpt><trkpt lat="43.14254950218756" lon="12.328641733513722"><ele>510.0</ele><time>2026-04-09T11:33:20.001Z</time></trkpt><trkpt lat="43.142479188439246" lon="12.328672977386063"><ele>510.0</ele><time>2026-04-09T11:33:21.001Z</time></trkpt><trkpt lat="43.14241114863537" lon="12.328711874354092"><ele>512.6</ele><time>2026-04-09T11:33:22.001Z</time></trkpt><trkpt lat="43.14232600231583" lon="12.328722634733516"><ele>515.2</ele><time>2026-04-09T11:33:23.001Z</time></trkpt><trkpt lat="43.142230801426535" lon="12.328683611216844"><ele>517.8</ele><time>2026-04-09T11:33:25.001Z</time></trkpt><trkpt lat="43.142162216509846" lon="12.32856334684226"><ele>520.4</ele><time>2026-04-09T11:33:27.002Z</time></trkpt><trkpt lat="43.14209949035043" lon="12.328528830042973"><ele>523.0</ele><time>2026-04-09T11:33:28.002Z</time></trkpt><trkpt lat="43.14199531540807" lon="12.32844163819508"><ele>523.0</ele><time>2026-04-09T11:33:30.002Z</time></trkpt><trkpt lat="43.1419422289171" lon="12.328382031977217"><ele>523.0</ele><time>2026-04-09T11:33:31.002Z</time></trkpt><trkpt lat="43.14189223502831" lon="12.328320454812214"><ele>523.0</ele><time>2026-04-09T11:33:32.002Z</time></trkpt><trkpt lat="43.141810166392" lon="12.328234230670745"><ele>523.0</ele><time>2026-04-09T11:33:34.002Z</time></trkpt><trkpt lat="43.14177430707641" lon="12.328157773389943"><ele>523.0</ele><time>2026-04-09T11:33:35.002Z</time></trkpt><trkpt lat="43.14174334162715" lon="12.328080331165703"><ele>523.0</ele><time>2026-04-09T11:33:36.002Z</time></trkpt><trkpt lat="43.14165173051003" lon="12.327966360364547"><ele>521.0</ele><time>2026-04-09T11:33:38.002Z</time></trkpt><trkpt lat="43.1416133402114" lon="12.327891352692546"><ele>519.0</ele><time>2026-04-09T11:33:39.002Z</time></trkpt><trkpt lat="43.14158400342804" lon="12.327723992805392"><ele>517.0</ele><time>2026-04-09T11:33:41.002Z</time></trkpt><trkpt lat="43.141539531187554" lon="12.3276281869777"><ele>515.0</ele><time>2026-04-09T11:33:43.002Z</time></trkpt><trkpt lat="43.141429282727906" lon="12.327613032456522"><ele>513.0</ele><time>2026-04-09T11:33:46.002Z</time></trkpt><trkpt lat="43.141324133633375" lon="12.327642797464225"><ele>513.0</ele><time>2026-04-09T11:33:48.002Z</time></trkpt><trkpt lat="43.14123438767602" lon="12.327678451993991"><ele>513.0</ele><time>2026-04-09T11:33:50.002Z</time></trkpt><trkpt lat="43.14112078949204" lon="12.327747753303669"><ele>513.0</ele><time>2026-04-09T11:33:52.002Z</time></trkpt><trkpt lat="43.14102359943331" lon="12.327813944641921"><ele>513.0</ele><time>2026-04-09T11:33:54.002Z</time></trkpt><trkpt lat="43.14094209184588" lon="12.32785614882346"><ele>513.0</ele><time>2026-04-09T11:33:56.002Z</time></trkpt><trkpt lat="43.14086484568889" lon="12.327815020254505"><ele>513.0</ele><time>2026-04-09T11:33:59.002Z</time></trkpt><trkpt lat="43.14078954207387" lon="12.327800315196034"><ele>513.0</ele><time>2026-04-09T11:34:01.999Z</time></trkpt><trkpt lat="43.140695080107136" lon="12.327787195074311"><ele>513.0</ele><time>2026-04-09T11:34:04.999Z</time></trkpt><trkpt lat="43.14059633574026" lon="12.327731006779954"><ele>513.0</ele><time>2026-04-09T11:34:06.999Z</time></trkpt><trkpt lat="43.140492346164095" lon="12.327712130346985"><ele>513.0</ele><time>2026-04-09T11:34:08.999Z</time></trkpt><trkpt lat="43.1404113512645" lon="12.327699163273254"><ele>513.1999999999999</ele><time>2026-04-09T11:34:17.999Z</time></trkpt><trkpt lat="43.140339090462376" lon="12.327700582708152"><ele>513.4</ele><time>2026-04-09T11:34:19.999Z</time></trkpt><trkpt lat="43.14023084969989" lon="12.327700818712863"><ele>513.5999999999999</ele><time>2026-04-09T11:34:21.999Z</time></trkpt><trkpt lat="43.14011632927351" lon="12.327717726123474"><ele>513.8</ele><time>2026-04-09T11:34:23.999Z</time></trkpt><trkpt lat="43.14003339033871" lon="12.327696698160555"><ele>514.0</ele><time>2026-04-09T11:34:25.999Z</time></trkpt><trkpt lat="43.13992528564014" lon="12.32767301950563"><ele>514.6666666666667</ele><time>2026-04-09T11:34:29.999Z</time></trkpt><trkpt lat="43.139820948536205" lon="12.32763859346414"><ele>515.3333333333334</ele><time>2026-04-09T11:34:31.999Z</time></trkpt><trkpt lat="43.13975068885879" lon="12.32759185584388"><ele>516.0</ele><time>2026-04-09T11:34:36Z</time></trkpt><trkpt lat="43.13969754852534" lon="12.327531111316402"><ele>516.6666666666666</ele><time>2026-04-09T11:37:11Z</time></trkpt><trkpt lat="43.139638333613654" lon="12.327474902049403"><ele>517.3333333333333</ele><time>2026-04-09T11:37:14Z</time></trkpt><trkpt lat="43.13957888661866" lon="12.327424341809548"><ele>518.0</ele><time>2026-04-09T11:37:17Z</time></trkpt><trkpt lat="43.139509487316644" lon="12.327424281796405"><ele>518.0</ele><time>2026-04-09T11:37:20Z</time></trkpt><trkpt lat="43.13944088884473" lon="12.327418952132506"><ele>518.0</ele><time>2026-04-09T11:37:23Z</time></trkpt><trkpt lat="43.13936417372073" lon="12.327478144414476"><ele>518.0</ele><time>2026-04-09T11:37:26Z</time></trkpt><trkpt lat="43.1393050641778" lon="12.327514870201332"><ele>518.0</ele><time>2026-04-09T11:37:28Z</time></trkpt><trkpt lat="43.139240904062056" lon="12.32757180336041"><ele>518.0</ele><time>2026-04-09T11:37:30Z</time></trkpt><trkpt lat="43.139170224255096" lon="12.327623530035304"><ele>518.0</ele><time>2026-04-09T11:37:32.001Z</time></trkpt><trkpt lat="43.13911173882389" lon="12.327668920565497"><ele>518.0</ele><time>2026-04-09T11:37:34.001Z</time></trkpt><trkpt lat="43.13903028628317" lon="12.32771333581727"><ele>520.1666666666666</ele><time>2026-04-09T11:37:36.001Z</time></trkpt><trkpt lat="43.13896724628737" lon="12.327750037553152"><ele>522.3333333333333</ele><time>2026-04-09T11:38:08.001Z</time></trkpt><trkpt lat="43.13888561984899" lon="12.327790946995941"><ele>524.5</ele><time>2026-04-09T11:38:11.001Z</time></trkpt><trkpt lat="43.138808921884085" lon="12.327827024165117"><ele>526.6666666666666</ele><time>2026-04-09T11:38:13.999Z</time></trkpt><trkpt lat="43.138746804468475" lon="12.327862347323176"><ele>528.8333333333334</ele><time>2026-04-09T11:38:16.999Z</time></trkpt><trkpt lat="43.13867896449559" lon="12.327904379974107"><ele>531.0</ele><time>2026-04-09T11:38:19.999Z</time></trkpt><trkpt lat="43.13860583498814" lon="12.32795049144379"><ele>531.0</ele><time>2026-04-09T11:38:22.999Z</time></trkpt><trkpt lat="43.13854658044156" lon="12.327995223732204"><ele>531.0</ele><time>2026-04-09T11:38:24.999Z</time></trkpt><trkpt lat="43.138484482302175" lon="12.328033400824843"><ele>531.0</ele><time>2026-04-09T11:38:26.999Z</time></trkpt><trkpt lat="43.138406940214026" lon="12.328082130047916"><ele>531.0</ele><time>2026-04-09T11:38:29.999Z</time></trkpt><trkpt lat="43.13833666694943" lon="12.328149940422822"><ele>531.0</ele><time>2026-04-09T11:38:32.999Z</time></trkpt><trkpt lat="43.13827559178349" lon="12.328191384428461"><ele>531.0</ele><time>2026-04-09T11:38:34.999Z</time></trkpt><trkpt lat="43.13822607819349" lon="12.328246219793716"><ele>531.0</ele><time>2026-04-09T11:38:36.999Z</time></trkpt><trkpt lat="43.138175040923564" lon="12.328300993257036"><ele>533.8571428571429</ele><time>2026-04-09T11:38:38.999Z</time></trkpt><trkpt lat="43.13810979605599" lon="12.328378586767023"><ele>536.7142857142858</ele><time>2026-04-09T11:38:41.999Z</time></trkpt><trkpt lat="43.13805375301074" lon="12.328428441929484"><ele>539.5714285714286</ele><time>2026-04-09T11:40:04.001Z</time></trkpt><trkpt lat="43.138006641062724" lon="12.328494358011683"><ele>542.4285714285714</ele><time>2026-04-09T11:40:12.001Z</time></trkpt><trkpt lat="43.13796301816378" lon="12.328563965297032"><ele>545.2857142857142</ele><time>2026-04-09T11:40:20.999Z</time></trkpt><trkpt lat="43.13791996101781" lon="12.328636123644486"><ele>548.1428571428571</ele><time>2026-04-09T11:40:28.999Z</time></trkpt><trkpt lat="43.13787395149544" lon="12.32871352740303"><ele>551.0</ele><time>2026-04-09T11:40:37.999Z</time></trkpt><trkpt lat="43.13782977125162" lon="12.328780202437509"><ele>550.9999999999999</ele><time>2026-04-09T11:40:45.999Z</time></trkpt><trkpt lat="43.137778593667505" lon="12.328843468043459"><ele>551.0</ele><time>2026-04-09T11:40:55Z</time></trkpt><trkpt lat="43.13773050253953" lon="12.328924397475415"><ele>551.0</ele><time>2026-04-09T11:41:03Z</time></trkpt><trkpt lat="43.13769189292184" lon="12.32899663190532"><ele>551.0</ele><time>2026-04-09T11:41:52.001Z</time></trkpt><trkpt lat="43.13766147837115" lon="12.329088563696855"><ele>551.0</ele><time>2026-04-09T11:42:01.001Z</time></trkpt><trkpt lat="43.13760761470012" lon="12.329137041792743"><ele>550.9999999999999</ele><time>2026-04-09T11:42:12.001Z</time></trkpt><trkpt lat="43.13754437296406" lon="12.329162112702779"><ele>551.0</ele><time>2026-04-09T11:42:22.001Z</time></trkpt><trkpt lat="43.137480408501965" lon="12.329187414226954"><ele>551.1428571428571</ele><time>2026-04-09T11:43:00Z</time></trkpt><trkpt lat="43.137415870890734" lon="12.329204448188996"><ele>551.2857142857142</ele><time>2026-04-09T11:43:08Z</time></trkpt><trkpt lat="43.13734891560877" lon="12.329202454978406"><ele>551.4285714285714</ele><time>2026-04-09T11:43:14Z</time></trkpt><trkpt lat="43.13728124964119" lon="12.329198056530956"><ele>551.5714285714286</ele><time>2026-04-09T11:43:20Z</time></trkpt><trkpt lat="43.137217000786734" lon="12.329174829033068"><ele>551.7142857142858</ele><time>2026-04-09T11:43:27.001Z</time></trkpt><trkpt lat="43.13716297742495" lon="12.329125841342634"><ele>551.8571428571429</ele><time>2026-04-09T11:43:36.001Z</time></trkpt><trkpt lat="43.13710860429371" lon="12.32906837833633"><ele>552.0</ele><time>2026-04-09T11:43:51.001Z</time></trkpt><trkpt lat="43.13705237014815" lon="12.329111067113619"><ele>552.8571428571429</ele><time>2026-04-09T11:44:00.001Z</time></trkpt><trkpt lat="43.137049319905515" lon="12.329208193473349"><ele>553.7142857142858</ele><time>2026-04-09T11:44:14.001Z</time></trkpt><trkpt lat="43.13710629333381" lon="12.329313920507223"><ele>554.5714285714286</ele><time>2026-04-09T11:44:17.001Z</time></trkpt><trkpt lat="43.13714561910121" lon="12.329383910234466"><ele>555.4285714285714</ele><time>2026-04-09T11:44:19.001Z</time></trkpt><trkpt lat="43.13718387778342" lon="12.32945895758479"><ele>556.2857142857142</ele><time>2026-04-09T11:44:21.001Z</time></trkpt><trkpt lat="43.13723046745851" lon="12.329547211282053"><ele>557.1428571428571</ele><time>2026-04-09T11:44:24.002Z</time></trkpt><trkpt lat="43.13724987453121" lon="12.329639757536608"><ele>558.0</ele><time>2026-04-09T11:44:28.002Z</time></trkpt><trkpt lat="43.13729933967953" lon="12.32970959739235"><ele>558.3333333333334</ele><time>2026-04-09T11:44:49.001Z</time></trkpt><trkpt lat="43.13735127715037" lon="12.329761293546026"><ele>558.6666666666666</ele><time>2026-04-09T11:45:16.001Z</time></trkpt><trkpt lat="43.13738197880544" lon="12.329849194345915"><ele>559.0</ele><time>2026-04-09T11:45:20.001Z</time></trkpt><trkpt lat="43.13739290567146" lon="12.329756775862254"><ele>559.3333333333333</ele><time>2026-04-09T11:45:41.001Z</time></trkpt><trkpt lat="43.137474019935496" lon="12.32978508223663"><ele>559.6666666666666</ele><time>2026-04-09T11:45:44.001Z</time></trkpt><trkpt lat="43.13753629037378" lon="12.329807721952141"><ele>560.0</ele><time>2026-04-09T11:45:46.001Z</time></trkpt><trkpt lat="43.1376325778701" lon="12.329833007926453"><ele>560.0</ele><time>2026-04-09T11:45:48.001Z</time></trkpt><trkpt lat="43.13776411635803" lon="12.329868189625996"><ele>560.0</ele><time>2026-04-09T11:45:50.001Z</time></trkpt><trkpt lat="43.13783303236143" lon="12.329884642059554"><ele>560.0</ele><time>2026-04-09T11:45:51.001Z</time></trkpt><trkpt lat="43.13790945097175" lon="12.32989717490758"><ele>560.0</ele><time>2026-04-09T11:45:52.001Z</time></trkpt><trkpt lat="43.137988422479474" lon="12.32990632244235"><ele>560.0</ele><time>2026-04-09T11:45:53.001Z</time></trkpt><trkpt lat="43.13806312054784" lon="12.329925205520427"><ele>560.0</ele><time>2026-04-09T11:45:54.001Z</time></trkpt><trkpt lat="43.138132498173974" lon="12.329935297132678"><ele>560.0</ele><time>2026-04-09T11:45:55.001Z</time></trkpt><trkpt lat="43.138210001697786" lon="12.32995034357286"><ele>560.0</ele><time>2026-04-09T11:45:56.001Z</time></trkpt><trkpt lat="43.13827467897228" lon="12.329960465286973"><ele>560.0</ele><time>2026-04-09T11:45:57.001Z</time></trkpt><trkpt lat="43.13833395130115" lon="12.329993445127915"><ele>560.0</ele><time>2026-04-09T11:45:58.001Z</time></trkpt><trkpt lat="43.138416190366605" lon="12.330072837371121"><ele>560.0</ele><time>2026-04-09T11:46:00.001Z</time></trkpt><trkpt lat="43.13847543373368" lon="12.330161435674809"><ele>560.0</ele><time>2026-04-09T11:46:02.002Z</time></trkpt><trkpt lat="43.13853789209904" lon="12.330235768729304"><ele>559.6</ele><time>2026-04-09T11:46:04.002Z</time></trkpt><trkpt lat="43.138593232423275" lon="12.330332565080777"><ele>559.2</ele><time>2026-04-09T11:46:06.002Z</time></trkpt><trkpt lat="43.13865684187688" lon="12.330459725243891"><ele>558.8</ele><time>2026-04-09T11:46:08.002Z</time></trkpt><trkpt lat="43.13875080574498" lon="12.330582304785084"><ele>558.4</ele><time>2026-04-09T11:46:10.002Z</time></trkpt><trkpt lat="43.13880839454001" lon="12.330636960646723"><ele>558.0</ele><time>2026-04-09T11:46:11.002Z</time></trkpt><trkpt lat="43.13893953909117" lon="12.330688583478995"><ele>558.5</ele><time>2026-04-09T11:46:13.002Z</time></trkpt><trkpt lat="43.13903678918111" lon="12.330685926073974"><ele>559.0</ele><time>2026-04-09T11:46:14.002Z</time></trkpt><trkpt lat="43.139117884156356" lon="12.33068125776127"><ele>559.5</ele><time>2026-04-09T11:46:15.002Z</time></trkpt><trkpt lat="43.139196176517856" lon="12.330698883079814"><ele>560.0</ele><time>2026-04-09T11:46:16.002Z</time></trkpt><trkpt lat="43.13927939716282" lon="12.330695101489354"><ele>560.5</ele><time>2026-04-09T11:46:18.002Z</time></trkpt><trkpt lat="43.13934392634664" lon="12.330647806519641"><ele>561.0</ele><time>2026-04-09T11:46:21.002Z</time></trkpt><trkpt lat="43.13939742893264" lon="12.330594344090462"><ele>559.2</ele><time>2026-04-09T11:46:24.002Z</time></trkpt><trkpt lat="43.13945839867144" lon="12.330499206185868"><ele>557.4000000000001</ele><time>2026-04-09T11:46:26.002Z</time></trkpt><trkpt lat="43.1395198081903" lon="12.330395577134077"><ele>555.6</ele><time>2026-04-09T11:46:28.002Z</time></trkpt><trkpt lat="43.13957686807568" lon="12.33035536395611"><ele>553.8000000000001</ele><time>2026-04-09T11:46:29.002Z</time></trkpt><trkpt lat="43.139673150813316" lon="12.330277136636699"><ele>552.0</ele><time>2026-04-09T11:46:31.002Z</time></trkpt><trkpt lat="43.13977398103252" lon="12.330193519726826"><ele>552.0</ele><time>2026-04-09T11:46:33.002Z</time></trkpt><trkpt lat="43.139880898844204" lon="12.330145394851929"><ele>552.0</ele><time>2026-04-09T11:46:35.002Z</time></trkpt><trkpt lat="43.13997642429361" lon="12.330082037666333"><ele>552.0</ele><time>2026-04-09T11:46:37.001Z</time></trkpt><trkpt lat="43.14003598306906" lon="12.330017031695425"><ele>552.0</ele><time>2026-04-09T11:46:39.001Z</time></trkpt><trkpt lat="43.140099541661414" lon="12.329966311175484"><ele>552.0</ele><time>2026-04-09T11:46:41.001Z</time></trkpt><trkpt lat="43.14016839131333" lon="12.329892583756349"><ele>551.1666666666666</ele><time>2026-04-09T11:46:44.001Z</time></trkpt><trkpt lat="43.14022094812962" lon="12.329813371196312"><ele>550.3333333333334</ele><time>2026-04-09T11:46:48.001Z</time></trkpt><trkpt lat="43.140290436664706" lon="12.329756062092466"><ele>549.5</ele><time>2026-04-09T11:46:51.001Z</time></trkpt><trkpt lat="43.14036881225705" lon="12.329726610182458"><ele>548.6666666666667</ele><time>2026-04-09T11:46:55.001Z</time></trkpt><trkpt lat="43.14044373242286" lon="12.329717137521783"><ele>547.8333333333334</ele><time>2026-04-09T11:46:59.001Z</time></trkpt><trkpt lat="43.14050650720297" lon="12.329680942152882"><ele>547.0</ele><time>2026-04-09T11:47:01.001Z</time></trkpt><trkpt lat="43.14059587328492" lon="12.32973819026906"><ele>549.6666666666667</ele><time>2026-04-09T11:47:03.001Z</time></trkpt><trkpt lat="43.14071623657674" lon="12.329776545714521"><ele>552.3333333333334</ele><time>2026-04-09T11:47:05.001Z</time></trkpt><trkpt lat="43.140777555344464" lon="12.32980920850483"><ele>555.0</ele><time>2026-04-09T11:47:06.001Z</time></trkpt><trkpt lat="43.14084802878642" lon="12.329840965434405"><ele>557.6666666666666</ele><time>2026-04-09T11:47:07.001Z</time></trkpt><trkpt lat="43.14092071520054" lon="12.329859091158717"><ele>560.3333333333333</ele><time>2026-04-09T11:47:08.001Z</time></trkpt><trkpt lat="43.141002705823375" lon="12.329882669233239"><ele>563.0</ele><time>2026-04-09T11:47:09.001Z</time></trkpt><trkpt lat="43.141064481504756" lon="12.329916142465294"><ele>563.0</ele><time>2026-04-09T11:47:10.001Z</time></trkpt><trkpt lat="43.141122343900776" lon="12.329962664598932"><ele>563.0</ele><time>2026-04-09T11:47:11.001Z</time></trkpt><trkpt lat="43.1411722379652" lon="12.330021423426638"><ele>563.0</ele><time>2026-04-09T11:47:12.001Z</time></trkpt><trkpt lat="43.141234214038036" lon="12.330052838235597"><ele>563.0</ele><time>2026-04-09T11:47:13.001Z</time></trkpt><trkpt lat="43.14131299129869" lon="12.330157854916148"><ele>563.0</ele><time>2026-04-09T11:47:15.001Z</time></trkpt><trkpt lat="43.141438972588205" lon="12.330221567120518"><ele>563.0</ele><time>2026-04-09T11:47:17.001Z</time></trkpt><trkpt lat="43.14151352990642" lon="12.330255601860378"><ele>560.6666666666666</ele><time>2026-04-09T11:47:18.001Z</time></trkpt><trkpt lat="43.1415771559797" lon="12.3303332321084"><ele>558.3333333333333</ele><time>2026-04-09T11:47:19.001Z</time></trkpt><trkpt lat="43.14163838985036" lon="12.330380975474814"><ele>556.0</ele><time>2026-04-09T11:47:20.001Z</time></trkpt><trkpt lat="43.14170144520769" lon="12.33038115105434"><ele>553.6666666666666</ele><time>2026-04-09T11:47:23.001Z</time></trkpt><trkpt lat="43.141765747499875" lon="12.330416855303575"><ele>551.3333333333334</ele><time>2026-04-09T11:47:26.001Z</time></trkpt><trkpt lat="43.14185495928607" lon="12.330374114853111"><ele>549.0</ele><time>2026-04-09T11:47:28.001Z</time></trkpt><trkpt lat="43.141918098947905" lon="12.330333020328878"><ele>549.0</ele><time>2026-04-09T11:47:31.001Z</time></trkpt><trkpt lat="43.141998751821966" lon="12.33030100858302"><ele>549.0</ele><time>2026-04-09T11:47:34.001Z</time></trkpt><trkpt lat="43.14206252243218" lon="12.330272901463893"><ele>549.0</ele><time>2026-04-09T11:47:36.001Z</time></trkpt><trkpt lat="43.14213969841022" lon="12.330231431275626"><ele>549.0</ele><time>2026-04-09T11:47:44.002Z</time></trkpt><trkpt lat="43.1422018126707" lon="12.330191150470169"><ele>549.0</ele><time>2026-04-09T11:47:46.002Z</time></trkpt><trkpt lat="43.142263280925846" lon="12.330132500138026"><ele>549.0</ele><time>2026-04-09T11:47:49.002Z</time></trkpt><trkpt lat="43.142325790341786" lon="12.330036664674905"><ele>546.5</ele><time>2026-04-09T11:47:52.002Z</time></trkpt><trkpt lat="43.14239017457203" lon="12.329977441521729"><ele>544.0</ele><time>2026-04-09T11:47:54.002Z</time></trkpt><trkpt lat="43.14243983673909" lon="12.329902695313319"><ele>541.5</ele><time>2026-04-09T11:47:59.002Z</time></trkpt><trkpt lat="43.142507846280054" lon="12.329885694412761"><ele>539.0</ele><time>2026-04-09T11:48:03.002Z</time></trkpt><trkpt lat="43.14256718474726" lon="12.329832930595826"><ele>536.5</ele><time>2026-04-09T11:48:08.002Z</time></trkpt><trkpt lat="43.142621985844556" lon="12.329786511777101"><ele>534.0</ele><time>2026-04-09T11:48:11.002Z</time></trkpt><trkpt lat="43.142674971" lon="12.329680218588791"><ele>532.7142857142858</ele><time>2026-04-09T11:48:14.002Z</time></trkpt><trkpt lat="43.14272544303731" lon="12.32962090946761"><ele>531.4285714285714</ele><time>2026-04-09T11:48:16.002Z</time></trkpt><trkpt lat="43.14277911272304" lon="12.329565177265774"><ele>530.1428571428571</ele><time>2026-04-09T11:48:18.002Z</time></trkpt><trkpt lat="43.142849864314066" lon="12.329484336430129"><ele>528.8571428571429</ele><time>2026-04-09T11:48:21.002Z</time></trkpt><trkpt lat="43.1429143628362" lon="12.329433515001673"><ele>527.5714285714286</ele><time>2026-04-09T11:48:23.002Z</time></trkpt><trkpt lat="43.14296241769714" lon="12.329377654660155"><ele>526.2857142857143</ele><time>2026-04-09T11:48:24.003Z</time></trkpt><trkpt lat="43.14303111239481" lon="12.329318184850017"><ele>525.0</ele><time>2026-04-09T11:48:26.003Z</time></trkpt><trkpt lat="43.14310014374374" lon="12.329250840709664"><ele>525.0</ele><time>2026-04-09T11:48:28.003Z</time></trkpt><trkpt lat="43.14318837440795" lon="12.329186324636359"><ele>525.0</ele><time>2026-04-09T11:48:30.003Z</time></trkpt><trkpt lat="43.14325293931425" lon="12.329161865793253"><ele>525.0</ele><time>2026-04-09T11:48:32.003Z</time></trkpt><trkpt lat="43.14333600907343" lon="12.32912481770111"><ele>525.0</ele><time>2026-04-09T11:48:35.003Z</time></trkpt><trkpt lat="43.14339983779871" lon="12.329037570517988"><ele>525.0</ele><time>2026-04-09T11:48:39.003Z</time></trkpt><trkpt lat="43.143456189275234" lon="12.32897904553736"><ele>525.0</ele><time>2026-04-09T11:48:41.003Z</time></trkpt><trkpt lat="43.1434598572353" lon="12.32888193959711"><ele>522.5</ele><time>2026-04-09T11:48:44.002Z</time></trkpt><trkpt lat="43.143397073017965" lon="12.32881147941352"><ele>520.0</ele><time>2026-04-09T11:48:47.002Z</time></trkpt><trkpt lat="43.143349077445514" lon="12.32873959318881"><ele>517.5</ele><time>2026-04-09T11:48:50.002Z</time></trkpt><trkpt lat="43.14330227845368" lon="12.328659045679341"><ele>515.0</ele><time>2026-04-09T11:48:53.002Z</time></trkpt><trkpt lat="43.14321625059136" lon="12.32861645446564"><ele>512.5</ele><time>2026-04-09T11:48:58.002Z</time></trkpt><trkpt lat="43.143144127480575" lon="12.32857620198068"><ele>510.0</ele><time>2026-04-09T11:49:01.002Z</time></trkpt><trkpt lat="43.143073839166064" lon="12.328574005297325"><ele>510.0</ele><time>2026-04-09T11:49:04.002Z</time></trkpt><trkpt lat="43.14299371373969" lon="12.328604814583464"><ele>510.00000000000006</ele><time>2026-04-09T11:49:07.002Z</time></trkpt><trkpt lat="43.142919991753494" lon="12.32861345117475"><ele>510.0</ele><time>2026-04-09T11:49:10.002Z</time></trkpt><trkpt lat="43.142849253332756" lon="12.32860339744122"><ele>510.0</ele><time>2026-04-09T11:49:13.001Z</time></trkpt><trkpt lat="43.142777475014384" lon="12.32859031576941"><ele>510.00000000000006</ele><time>2026-04-09T11:49:16.001Z</time></trkpt><trkpt lat="43.1427089982447" lon="12.328587335952646"><ele>510.0</ele><time>2026-04-09T11:49:19.001Z</time></trkpt><trkpt lat="43.14264185688433" lon="12.328596868087823"><ele>510.0</ele><time>2026-04-09T11:49:22.001Z</time></trkpt><trkpt lat="43.142527724821726" lon="12.328619210434804"><ele>510.0</ele><time>2026-04-09T11:49:25.002Z</time></trkpt><trkpt lat="43.14242203003268" lon="12.32866090075242"><ele>510.0</ele><time>2026-04-09T11:49:27.002Z</time></trkpt><trkpt lat="43.14235853222236" lon="12.328687710075792"><ele>510.0</ele><time>2026-04-09T11:49:28.002Z</time></trkpt><trkpt lat="43.14224191380824" lon="12.328711101666018"><ele>510.0</ele><time>2026-04-09T11:49:30.002Z</time></trkpt><trkpt lat="43.14221179352782" lon="12.328618451113442"><ele>510.0</ele><time>2026-04-09T11:49:33.002Z</time></trkpt><trkpt lat="43.14214605976685" lon="12.32858016395774"><ele>510.0</ele><time>2026-04-09T11:49:35.002Z</time></trkpt><trkpt lat="43.14206951722364" lon="12.328520975521723"><ele>512.6</ele><time>2026-04-09T11:49:37.002Z</time></trkpt><trkpt lat="43.14198495679779" lon="12.328436664614467"><ele>515.2</ele><time>2026-04-09T11:49:39.002Z</time></trkpt><trkpt lat="43.14190517468669" lon="12.328345454044653"><ele>517.8</ele><time>2026-04-09T11:49:41.002Z</time></trkpt><trkpt lat="43.14183543532026" lon="12.328264912466357"><ele>520.4</ele><time>2026-04-09T11:49:43.002Z</time></trkpt><trkpt lat="43.141784490355654" lon="12.328184419483495"><ele>523.0</ele><time>2026-04-09T11:49:53.002Z</time></trkpt><trkpt lat="43.14172567093332" lon="12.328081441226626"><ele>521.3333333333334</ele><time>2026-04-09T11:49:56.002Z</time></trkpt><trkpt lat="43.14167029088752" lon="12.327989550752816"><ele>519.6666666666667</ele><time>2026-04-09T11:49:58.002Z</time></trkpt><trkpt lat="43.141612580144916" lon="12.327878955162028"><ele>518.0</ele><time>2026-04-09T11:50:00.002Z</time></trkpt><trkpt lat="43.14158525528804" lon="12.327800770063881"><ele>516.3333333333334</ele><time>2026-04-09T11:50:01.002Z</time></trkpt><trkpt lat="43.141562611364826" lon="12.327666400932515"><ele>514.6666666666666</ele><time>2026-04-09T11:50:03.002Z</time></trkpt><trkpt lat="43.14155391332948" lon="12.327577170244291"><ele>513.0</ele><time>2026-04-09T11:50:07.002Z</time></trkpt><trkpt lat="43.14157579107575" lon="12.327487631206527"><ele>513.0000000000001</ele><time>2026-04-09T11:50:09.002Z</time></trkpt><trkpt lat="43.141610091008786" lon="12.327374436275873"><ele>513.0</ele><time>2026-04-09T11:50:12.002Z</time></trkpt><trkpt lat="43.14160384438513" lon="12.327271420415668"><ele>513.0</ele><time>2026-04-09T11:50:15.002Z</time></trkpt><trkpt lat="43.14161260467509" lon="12.327183605519293"><ele>513.0</ele><time>2026-04-09T11:50:17.002Z</time></trkpt><trkpt lat="43.14163530032096" lon="12.327102876293457"><ele>513.0</ele><time>2026-04-09T11:50:20.002Z</time></trkpt><trkpt lat="43.141635384900546" lon="12.32700232876541"><ele>513.0000000000001</ele><time>2026-04-09T11:50:23.002Z</time></trkpt><trkpt lat="43.141633730226026" lon="12.326901176223764"><ele>513.0</ele><time>2026-04-09T11:50:26.002Z</time></trkpt><trkpt lat="43.14164949130622" lon="12.326812299998936"><ele>511.8571428571429</ele><time>2026-04-09T11:50:29.002Z</time></trkpt><trkpt lat="43.14161627360635" lon="12.326729540598844"><ele>510.7142857142857</ele><time>2026-04-09T11:50:46.002Z</time></trkpt><trkpt lat="43.14155236070052" lon="12.326704790878006"><ele>509.57142857142856</ele><time>2026-04-09T11:50:51.002Z</time></trkpt><trkpt lat="43.141485125869494" lon="12.32673392846292"><ele>508.42857142857144</ele><time>2026-04-09T11:50:55.001Z</time></trkpt><trkpt lat="43.141416702142024" lon="12.326691020464287"><ele>507.2857142857142</ele><time>2026-04-09T11:51:00.001Z</time></trkpt><trkpt lat="43.14140594097304" lon="12.326604946934918"><ele>506.1428571428571</ele><time>2026-04-09T11:51:04.001Z</time></trkpt><trkpt lat="43.1414275373318" lon="12.326517656437716"><ele>505.0</ele><time>2026-04-09T11:51:07.001Z</time></trkpt><trkpt lat="43.141449463333686" lon="12.326408616170802"><ele>504.1666666666667</ele><time>2026-04-09T11:51:11.001Z</time></trkpt><trkpt lat="43.14146313387617" lon="12.326292130569074"><ele>503.33333333333337</ele><time>2026-04-09T11:51:14.001Z</time></trkpt><trkpt lat="43.14149023609183" lon="12.326207753656375"><ele>502.5</ele><time>2026-04-09T11:51:16.001Z</time></trkpt><trkpt lat="43.141528121830476" lon="12.326122270539278"><ele>501.66666666666663</ele><time>2026-04-09T11:51:20.001Z</time></trkpt><trkpt lat="43.14153682356874" lon="12.32603322371543"><ele>500.8333333333333</ele><time>2026-04-09T11:51:23.001Z</time></trkpt><trkpt lat="43.14154462868191" lon="12.325915126562196"><ele>500.0</ele><time>2026-04-09T11:51:26.001Z</time></trkpt><trkpt lat="43.14158108064596" lon="12.325816458529701"><ele>500.0</ele><time>2026-04-09T11:51:29.001Z</time></trkpt><trkpt lat="43.14161945338881" lon="12.325728588135581"><ele>500.0</ele><time>2026-04-09T11:51:31.001Z</time></trkpt><trkpt lat="43.14168102456541" lon="12.325645354977087"><ele>500.0</ele><time>2026-04-09T11:51:33.001Z</time></trkpt><trkpt lat="43.141738265906966" lon="12.325597154991721"><ele>500.0</ele><time>2026-04-09T11:51:35.001Z</time></trkpt><trkpt lat="43.141804570673266" lon="12.325574722545776"><ele>500.0</ele><time>2026-04-09T11:51:37.001Z</time></trkpt><trkpt lat="43.14187209392811" lon="12.325555797727457"><ele>500.0</ele><time>2026-04-09T11:51:39.001Z</time></trkpt><trkpt lat="43.141946475486286" lon="12.325552197079343"><ele>500.0</ele><time>2026-04-09T11:51:41.001Z</time></trkpt><trkpt lat="43.14201561473203" lon="12.325554862647143"><ele>500.6</ele><time>2026-04-09T11:51:43.001Z</time></trkpt><trkpt lat="43.142103136832056" lon="12.325556991841278"><ele>501.2</ele><time>2026-04-09T11:51:45.001Z</time></trkpt><trkpt lat="43.14222280315811" lon="12.325555011958627"><ele>501.79999999999995</ele><time>2026-04-09T11:51:47.001Z</time></trkpt><trkpt lat="43.14229148407965" lon="12.325548381195226"><ele>502.4</ele><time>2026-04-09T11:51:48.001Z</time></trkpt><trkpt lat="43.14241014822732" lon="12.325550293628645"><ele>503.0</ele><time>2026-04-09T11:51:50.001Z</time></trkpt><trkpt lat="43.142484190122815" lon="12.325566054098221"><ele>500.59999999999997</ele><time>2026-04-09T11:51:51.001Z</time></trkpt><trkpt lat="43.14259553550873" lon="12.325641668194937"><ele>498.19999999999993</ele><time>2026-04-09T11:51:53.001Z</time></trkpt><trkpt lat="43.142684253045054" lon="12.325777356199831"><ele>495.8</ele><time>2026-04-09T11:51:55.001Z</time></trkpt><trkpt lat="43.14271756072326" lon="12.325855675903064"><ele>493.4</ele><time>2026-04-09T11:51:56.001Z</time></trkpt><trkpt lat="43.14274425732375" lon="12.325939799577142"><ele>491.0</ele><time>2026-04-09T11:51:57.001Z</time></trkpt><trkpt lat="43.142773331098475" lon="12.326022477069934"><ele>491.0</ele><time>2026-04-09T11:51:58.001Z</time></trkpt><trkpt lat="43.142807168618425" lon="12.326101922004764"><ele>491.0</ele><time>2026-04-09T11:51:59.001Z</time></trkpt><trkpt lat="43.14275269556495" lon="12.326001834392164"><ele>491.0</ele><time>2026-04-09T11:52:21.002Z</time></trkpt><trkpt lat="43.142705073397174" lon="12.325902247639213"><ele>491.0</ele><time>2026-04-09T11:52:23.002Z</time></trkpt><trkpt lat="43.1426555173095" lon="12.325772781280072"><ele>491.0</ele><time>2026-04-09T11:52:25.002Z</time></trkpt><trkpt lat="43.14258904227513" lon="12.325674028387063"><ele>491.0</ele><time>2026-04-09T11:52:27.002Z</time></trkpt><trkpt lat="43.142503401551906" lon="12.325607502672375"><ele>491.0</ele><time>2026-04-09T11:52:29.002Z</time></trkpt><trkpt lat="43.14239893054828" lon="12.325573369703532"><ele>491.0</ele><time>2026-04-09T11:52:31.002Z</time></trkpt><trkpt lat="43.1422853164361" lon="12.32556603221015"><ele>491.0</ele><time>2026-04-09T11:52:33.002Z</time></trkpt><trkpt lat="43.14218980023536" lon="12.325553517861813"><ele>491.0</ele><time>2026-04-09T11:52:35.002Z</time></trkpt><trkpt lat="43.14213698397864" lon="12.32549175191419"><ele>493.8333333333333</ele><time>2026-04-09T11:52:37.002Z</time></trkpt><trkpt lat="43.14208492657623" lon="12.325435893871987"><ele>496.66666666666663</ele><time>2026-04-09T11:52:39.002Z</time></trkpt><trkpt lat="43.1420408836288" lon="12.325366986224902"><ele>499.5</ele><time>2026-04-09T11:52:41.002Z</time></trkpt><trkpt lat="43.142143248846665" lon="12.32530216118453"><ele>502.33333333333337</ele><time>2026-04-09T11:52:58.001Z</time></trkpt><trkpt lat="43.142225758632456" lon="12.325288638252752"><ele>505.1666666666667</ele><time>2026-04-09T11:53:00.001Z</time></trkpt><trkpt lat="43.14229977637834" lon="12.325279284424512"><ele>508.0</ele><time>2026-04-09T11:53:02.001Z</time></trkpt><trkpt lat="43.14237047945137" lon="12.325300316008885"><ele>507.1666666666667</ele><time>2026-04-09T11:53:06.001Z</time></trkpt><trkpt lat="43.142441276958685" lon="12.325297678130248"><ele>506.33333333333337</ele><time>2026-04-09T11:53:11.001Z</time></trkpt><trkpt lat="43.14251138416595" lon="12.32529519280164"><ele>505.5</ele><time>2026-04-09T11:53:14.001Z</time></trkpt><trkpt lat="43.1425911961048" lon="12.325302667139539"><ele>504.66666666666663</ele><time>2026-04-09T11:53:17.001Z</time></trkpt><trkpt lat="43.14267286917737" lon="12.325308712478847"><ele>503.8333333333333</ele><time>2026-04-09T11:53:20.001Z</time></trkpt><trkpt lat="43.14273545670706" lon="12.32529622477209"><ele>503.0</ele><time>2026-04-09T11:53:22.001Z</time></trkpt><trkpt lat="43.142832193361784" lon="12.325332160967278"><ele>503.0</ele><time>2026-04-09T11:53:25.001Z</time></trkpt><trkpt lat="43.14292448479476" lon="12.325356769873475"><ele>502.99999999999994</ele><time>2026-04-09T11:53:29.001Z</time></trkpt><trkpt lat="43.14303356997232" lon="12.325304074493273"><ele>502.99999999999994</ele><time>2026-04-09T11:53:32.001Z</time></trkpt><trkpt lat="43.143137556609084" lon="12.325269124925386"><ele>503.0</ele><time>2026-04-09T11:53:34.001Z</time></trkpt><trkpt lat="43.14320012232468" lon="12.325235167219699"><ele>503.0</ele><time>2026-04-09T11:53:36.001Z</time></trkpt><trkpt lat="43.143272746650574" lon="12.325168013080816"><ele>500.99999999999994</ele><time>2026-04-09T11:53:40.001Z</time></trkpt><trkpt lat="43.14334376870429" lon="12.325099845581871"><ele>499.0</ele><time>2026-04-09T11:53:43.001Z</time></trkpt><trkpt lat="43.14339671828804" lon="12.32501013766134"><ele>497.0</ele><time>2026-04-09T11:53:46.001Z</time></trkpt><trkpt lat="43.14345314813167" lon="12.324966354825746"><ele>495.0</ele><time>2026-04-09T11:54:06.001Z</time></trkpt><trkpt lat="43.143504024519856" lon="12.324893703636912"><ele>492.99999999999994</ele><time>2026-04-09T11:54:10.001Z</time></trkpt><trkpt lat="43.143569782925695" lon="12.324836467100862"><ele>491.0</ele><time>2026-04-09T11:54:13.001Z</time></trkpt><trkpt lat="43.14363728612717" lon="12.324787650054553"><ele>491.66666666666663</ele><time>2026-04-09T11:54:15.001Z</time></trkpt><trkpt lat="43.14371543533604" lon="12.324718501933182"><ele>492.3333333333333</ele><time>2026-04-09T11:54:17.001Z</time></trkpt><trkpt lat="43.14380621708053" lon="12.324664251393148"><ele>493.0</ele><time>2026-04-09T11:54:20.001Z</time></trkpt><trkpt lat="43.143869265817955" lon="12.324620731584204"><ele>493.66666666666663</ele><time>2026-04-09T11:54:22.001Z</time></trkpt><trkpt lat="43.14395114516247" lon="12.324590488652882"><ele>494.3333333333333</ele><time>2026-04-09T11:54:24.001Z</time></trkpt><trkpt lat="43.144021600675856" lon="12.324586850107213"><ele>495.0</ele><time>2026-04-09T11:54:27.001Z</time></trkpt><trkpt lat="43.14406814057561" lon="12.324691495878794"><ele>490.5</ele><time>2026-04-09T11:54:29.001Z</time></trkpt><trkpt lat="43.14414556569636" lon="12.324812822182434"><ele>486.0</ele><time>2026-04-09T11:54:31.001Z</time></trkpt><trkpt lat="43.14422767696848" lon="12.324916961701108"><ele>481.5</ele><time>2026-04-09T11:54:33.001Z</time></trkpt><trkpt lat="43.14437620694583" lon="12.324766227007656"><ele>477.0</ele><time>2026-04-09T11:54:39.001Z</time></trkpt><trkpt lat="43.14444157156643" lon="12.3246917283508"><ele>476.20000000000005</ele><time>2026-04-09T11:54:40.001Z</time></trkpt><trkpt lat="43.14451594470186" lon="12.324619751798412"><ele>475.40000000000003</ele><time>2026-04-09T11:54:41.001Z</time></trkpt><trkpt lat="43.1445999198758" lon="12.324559897536759"><ele>474.59999999999997</ele><time>2026-04-09T11:54:42.001Z</time></trkpt><trkpt lat="43.144686038990294" lon="12.324510420617363"><ele>473.79999999999995</ele><time>2026-04-09T11:54:43.001Z</time></trkpt><trkpt lat="43.14477127807729" lon="12.324447228002905"><ele>473.0</ele><time>2026-04-09T11:54:44.001Z</time></trkpt><trkpt lat="43.14486583488017" lon="12.324413480982082"><ele>470.59999999999997</ele><time>2026-04-09T11:54:45.001Z</time></trkpt><trkpt lat="43.14496180879947" lon="12.32440568877233"><ele>468.19999999999993</ele><time>2026-04-09T11:54:46.001Z</time></trkpt><trkpt lat="43.145055888164435" lon="12.324384812246892"><ele>465.8</ele><time>2026-04-09T11:54:47.001Z</time></trkpt><trkpt lat="43.145146791943574" lon="12.324343847532779"><ele>463.4</ele><time>2026-04-09T11:54:48.001Z</time></trkpt><trkpt lat="43.14524219193014" lon="12.324355756238305"><ele>461.0</ele><time>2026-04-09T11:54:49.001Z</time></trkpt><trkpt lat="43.14533583459142" lon="12.324340955591888"><ele>460.99999999999994</ele><time>2026-04-09T11:54:50.001Z</time></trkpt><trkpt lat="43.14542694958717" lon="12.324303276146944"><ele>461.0</ele><time>2026-04-09T11:54:51.001Z</time></trkpt><trkpt lat="43.14550944550395" lon="12.324270685646756"><ele>461.0</ele><time>2026-04-09T11:54:52.001Z</time></trkpt><trkpt lat="43.145571918333395" lon="12.324236266141313"><ele>461.0</ele><time>2026-04-09T11:54:53.001Z</time></trkpt><trkpt lat="43.1456754817434" lon="12.324145906738115"><ele>460.99999999999994</ele><time>2026-04-09T11:54:55.001Z</time></trkpt><trkpt lat="43.14571651753526" lon="12.324071624790227"><ele>461.0</ele><time>2026-04-09T11:54:56.001Z</time></trkpt><trkpt lat="43.145809194875824" lon="12.323945743401373"><ele>460.49999999999994</ele><time>2026-04-09T11:54:58.001Z</time></trkpt><trkpt lat="43.14586245624209" lon="12.32386704592803"><ele>460.0</ele><time>2026-04-09T11:54:59.001Z</time></trkpt><trkpt lat="43.14591935643072" lon="12.32378825030389"><ele>459.5</ele><time>2026-04-09T11:55:00.001Z</time></trkpt><trkpt lat="43.14598366957413" lon="12.323698312609785"><ele>459.0</ele><time>2026-04-09T11:55:01.001Z</time></trkpt><trkpt lat="43.14604859098976" lon="12.323607524275557"><ele>458.49999999999994</ele><time>2026-04-09T11:55:02.001Z</time></trkpt><trkpt lat="43.14610728256883" lon="12.323493544595513"><ele>458.0</ele><time>2026-04-09T11:55:03.001Z</time></trkpt><trkpt lat="43.14618857225007" lon="12.323409232884828"><ele>458.0</ele><time>2026-04-09T11:55:04.001Z</time></trkpt><trkpt lat="43.146254664776016" lon="12.3233131361819"><ele>457.99999999999994</ele><time>2026-04-09T11:55:05.001Z</time></trkpt><trkpt lat="43.146315092529605" lon="12.323206570924492"><ele>457.99999999999994</ele><time>2026-04-09T11:55:06.001Z</time></trkpt><trkpt lat="43.146360148530526" lon="12.323094243555992"><ele>458.0</ele><time>2026-04-09T11:55:07.001Z</time></trkpt><trkpt lat="43.146398466145826" lon="12.32297462710533"><ele>458.0</ele><time>2026-04-09T11:55:08.001Z</time></trkpt><trkpt lat="43.14642961975823" lon="12.322855990004465"><ele>458.0</ele><time>2026-04-09T11:55:09.001Z</time></trkpt><trkpt lat="43.14645396285411" lon="12.322733603378644"><ele>457.99999999999994</ele><time>2026-04-09T11:55:10.001Z</time></trkpt><trkpt lat="43.146485109196725" lon="12.32261003826261"><ele>457.99999999999994</ele><time>2026-04-09T11:55:11.001Z</time></trkpt><trkpt lat="43.14652216421081" lon="12.322494797250313"><ele>458.0</ele><time>2026-04-09T11:55:12.001Z</time></trkpt><trkpt lat="43.146554743459355" lon="12.3223961247284"><ele>458.0</ele><time>2026-04-09T11:55:13.001Z</time></trkpt><trkpt lat="43.14657804905108" lon="12.322275081635697"><ele>457.0</ele><time>2026-04-09T11:55:15.001Z</time></trkpt><trkpt lat="43.14660422206599" lon="12.322116640577713"><ele>456.0</ele><time>2026-04-09T11:58:29.001Z</time></trkpt><trkpt lat="43.14663857891385" lon="12.321990009430209"><ele>455.0</ele><time>2026-04-09T11:58:31.001Z</time></trkpt><trkpt lat="43.14666379113066" lon="12.321844432933553"><ele>454.0</ele><time>2026-04-09T11:58:33.001Z</time></trkpt><trkpt lat="43.14668152286893" lon="12.321663185520563"><ele>454.0</ele><time>2026-04-09T11:58:35.001Z</time></trkpt><trkpt lat="43.14671064354043" lon="12.321584197605377"><ele>454.00000000000006</ele><time>2026-04-09T11:58:36.001Z</time></trkpt><trkpt lat="43.146729179707464" lon="12.32149014910244"><ele>454.0</ele><time>2026-04-09T11:58:37.001Z</time></trkpt><trkpt lat="43.14673282930265" lon="12.321387769185092"><ele>454.0</ele><time>2026-04-09T11:58:38.001Z</time></trkpt><trkpt lat="43.146754028249745" lon="12.321300589925315"><ele>454.00000000000006</ele><time>2026-04-09T11:58:39.001Z</time></trkpt><trkpt lat="43.14677593705984" lon="12.321205742146491"><ele>454.0</ele><time>2026-04-09T11:58:40.001Z</time></trkpt><trkpt lat="43.14679450031216" lon="12.321109329442118"><ele>454.0</ele><time>2026-04-09T11:58:41.001Z</time></trkpt><trkpt lat="43.14683157732388" lon="12.321018773010914"><ele>455.1666666666667</ele><time>2026-04-09T11:58:42.001Z</time></trkpt><trkpt lat="43.146853074794386" lon="12.320935674978971"><ele>456.33333333333337</ele><time>2026-04-09T11:58:43.001Z</time></trkpt><trkpt lat="43.14688912914634" lon="12.320762132321915"><ele>457.5</ele><time>2026-04-09T11:58:45.001Z</time></trkpt><trkpt lat="43.14691299986169" lon="12.320673769239834"><ele>458.66666666666663</ele><time>2026-04-09T11:58:46.001Z</time></trkpt><trkpt lat="43.1469341665699" lon="12.320586741060518"><ele>459.8333333333333</ele><time>2026-04-09T11:58:47.001Z</time></trkpt><trkpt lat="43.146959167673195" lon="12.320502289851724"><ele>461.0</ele><time>2026-04-09T11:58:48.001Z</time></trkpt><trkpt lat="43.146982108613756" lon="12.320419560957296"><ele>463.4</ele><time>2026-04-09T11:58:49.001Z</time></trkpt><trkpt lat="43.14700187326248" lon="12.32033537486801"><ele>465.8</ele><time>2026-04-09T11:58:50.001Z</time></trkpt><trkpt lat="43.14703999223199" lon="12.320177420155735"><ele>468.19999999999993</ele><time>2026-04-09T11:58:52.001Z</time></trkpt><trkpt lat="43.14707342405685" lon="12.320022278715166"><ele>470.59999999999997</ele><time>2026-04-09T11:58:54.001Z</time></trkpt><trkpt lat="43.14710403221384" lon="12.319893458315313"><ele>473.0</ele><time>2026-04-09T11:58:56.001Z</time></trkpt><trkpt lat="43.14713335085817" lon="12.319738304214965"><ele>475.79999999999995</ele><time>2026-04-09T11:58:58.001Z</time></trkpt><trkpt lat="43.14716506542103" lon="12.319570734517015"><ele>478.59999999999997</ele><time>2026-04-09T11:59:00.001Z</time></trkpt><trkpt lat="43.14721680030452" lon="12.319393394743317"><ele>481.40000000000003</ele><time>2026-04-09T11:59:02.001Z</time></trkpt><trkpt lat="43.147225126855545" lon="12.319298193827871"><ele>484.20000000000005</ele><time>2026-04-09T11:59:03.001Z</time></trkpt><trkpt lat="43.147251913994864" lon="12.319198324267175"><ele>487.0</ele><time>2026-04-09T11:59:04.001Z</time></trkpt><trkpt lat="43.14727710773511" lon="12.319094173193301"><ele>487.00000000000006</ele><time>2026-04-09T11:59:05.001Z</time></trkpt><trkpt lat="43.14731727803808" lon="12.318923856720403"><ele>487.0</ele><time>2026-04-09T11:59:07.001Z</time></trkpt><trkpt lat="43.14733838640399" lon="12.3188291799143"><ele>487.0</ele><time>2026-04-09T11:59:08.001Z</time></trkpt><trkpt lat="43.14736505650461" lon="12.318738469440127"><ele>487.0</ele><time>2026-04-09T11:59:09.001Z</time></trkpt><trkpt lat="43.14740068070494" lon="12.31866210611192"><ele>487.00000000000006</ele><time>2026-04-09T11:59:10.001Z</time></trkpt><trkpt lat="43.147425642842805" lon="12.318576867956537"><ele>487.0</ele><time>2026-04-09T11:59:11.001Z</time></trkpt><trkpt lat="43.14747295307057" lon="12.318430046880124"><ele>485.0</ele><time>2026-04-09T11:59:13Z</time></trkpt><trkpt lat="43.14751767443031" lon="12.318298437435988"><ele>483.00000000000006</ele><time>2026-04-09T11:59:15Z</time></trkpt><trkpt lat="43.147551204724735" lon="12.318203025598548"><ele>481.00000000000006</ele><time>2026-04-09T11:59:17Z</time></trkpt><trkpt lat="43.14758603569964" lon="12.318072911342096"><ele>479.0</ele><time>2026-04-09T11:59:20Z</time></trkpt><trkpt lat="43.14765364973582" lon="12.317937245949848"><ele>477.0</ele><time>2026-04-09T11:59:22Z</time></trkpt><trkpt lat="43.14769175200597" lon="12.317839835253261"><ele>477.0</ele><time>2026-04-09T11:59:23Z</time></trkpt><trkpt lat="43.14773107166561" lon="12.317739312195624"><ele>477.00000000000006</ele><time>2026-04-09T11:59:24Z</time></trkpt><trkpt lat="43.14777116608637" lon="12.31763680832019"><ele>477.00000000000006</ele><time>2026-04-09T11:59:25Z</time></trkpt><trkpt lat="43.14781431453621" lon="12.317526496932999"><ele>477.0</ele><time>2026-04-09T11:59:26Z</time></trkpt><trkpt lat="43.147847128131005" lon="12.317400340533595"><ele>477.0</ele><time>2026-04-09T11:59:27Z</time></trkpt><trkpt lat="43.14789476490819" lon="12.317288775580746"><ele>477.6</ele><time>2026-04-09T11:59:28Z</time></trkpt><trkpt lat="43.14793524684136" lon="12.317171743295997"><ele>478.20000000000005</ele><time>2026-04-09T11:59:29Z</time></trkpt><trkpt lat="43.147975810078215" lon="12.317046475649832"><ele>478.8</ele><time>2026-04-09T11:59:30Z</time></trkpt><trkpt lat="43.14801448487752" lon="12.316924392827875"><ele>479.4</ele><time>2026-04-09T11:59:31Z</time></trkpt><trkpt lat="43.148054697819305" lon="12.316802655877044"><ele>480.0</ele><time>2026-04-09T11:59:32Z</time></trkpt><trkpt lat="43.14808737970079" lon="12.316679268653218"><ele>480.0</ele><time>2026-04-09T11:59:33Z</time></trkpt><trkpt lat="43.14812666914029" lon="12.316570864166994"><ele>480.0</ele><time>2026-04-09T11:59:34Z</time></trkpt><trkpt lat="43.148151676739715" lon="12.316442828174088"><ele>480.0</ele><time>2026-04-09T11:59:35Z</time></trkpt><trkpt lat="43.14817044194365" lon="12.316328860981669"><ele>480.0</ele><time>2026-04-09T11:59:36Z</time></trkpt><trkpt lat="43.14818700313609" lon="12.316203129263021"><ele>480.0</ele><time>2026-04-09T11:59:37Z</time></trkpt><trkpt lat="43.148181560788686" lon="12.316080721579809"><ele>479.4</ele><time>2026-04-09T11:59:38Z</time></trkpt><trkpt lat="43.14820308118457" lon="12.315962632995038"><ele>478.8</ele><time>2026-04-09T11:59:39Z</time></trkpt><trkpt lat="43.148205451118145" lon="12.31584509862557"><ele>478.20000000000005</ele><time>2026-04-09T11:59:40Z</time></trkpt><trkpt lat="43.148198865680556" lon="12.315735891754349"><ele>477.6</ele><time>2026-04-09T11:59:41Z</time></trkpt><trkpt lat="43.14818924783588" lon="12.31563394516591"><ele>477.0</ele><time>2026-04-09T11:59:42Z</time></trkpt><trkpt lat="43.14816749635566" lon="12.315459866862929"><ele>475.6</ele><time>2026-04-09T11:59:44Z</time></trkpt><trkpt lat="43.148150489954624" lon="12.315366118446867"><ele>474.20000000000005</ele><time>2026-04-09T11:59:45Z</time></trkpt><trkpt lat="43.14812245108286" lon="12.31520560346944"><ele>472.8</ele><time>2026-04-09T11:59:47Z</time></trkpt><trkpt lat="43.14813389672832" lon="12.315056551930887"><ele>471.4</ele><time>2026-04-09T11:59:49Z</time></trkpt><trkpt lat="43.14814158425266" lon="12.314959705498387"><ele>470.0</ele><time>2026-04-09T11:59:51Z</time></trkpt><trkpt lat="43.14817444834548" lon="12.314859205470402"><ele>468.16666666666663</ele><time>2026-04-09T12:00:03Z</time></trkpt><trkpt lat="43.148186354058886" lon="12.314703280456241"><ele>466.3333333333333</ele><time>2026-04-09T12:00:05Z</time></trkpt><trkpt lat="43.148173696492385" lon="12.314611879532084"><ele>464.5</ele><time>2026-04-09T12:00:06Z</time></trkpt><trkpt lat="43.14817678860053" lon="12.314515282685074"><ele>462.66666666666663</ele><time>2026-04-09T12:00:07Z</time></trkpt><trkpt lat="43.148168937319866" lon="12.314418344692294"><ele>460.8333333333333</ele><time>2026-04-09T12:00:08Z</time></trkpt><trkpt lat="43.14817364433546" lon="12.314310799259287"><ele>459.0</ele><time>2026-04-09T12:00:09Z</time></trkpt><trkpt lat="43.148166563736325" lon="12.314207940040008"><ele>459.0</ele><time>2026-04-09T12:00:10Z</time></trkpt><trkpt lat="43.14815881521651" lon="12.314111498926826"><ele>459.0</ele><time>2026-04-09T12:00:11Z</time></trkpt><trkpt lat="43.14815060605671" lon="12.314011872095008"><ele>459.0</ele><time>2026-04-09T12:00:12Z</time></trkpt><trkpt lat="43.14814160094176" lon="12.313915841124292"><ele>459.0</ele><time>2026-04-09T12:00:13Z</time></trkpt><trkpt lat="43.14813106075097" lon="12.313818981013782"><ele>459.0</ele><time>2026-04-09T12:00:14Z</time></trkpt><trkpt lat="43.14811962413157" lon="12.313724499480655"><ele>459.0</ele><time>2026-04-09T12:00:15Z</time></trkpt><trkpt lat="43.148100105363056" lon="12.313577404487878"><ele>458.79999999999995</ele><time>2026-04-09T12:00:17Z</time></trkpt><trkpt lat="43.148080871765536" lon="12.313445425538855"><ele>458.59999999999997</ele><time>2026-04-09T12:00:19Z</time></trkpt><trkpt lat="43.148044085812494" lon="12.313312088280831"><ele>458.4</ele><time>2026-04-09T12:00:21Z</time></trkpt><trkpt lat="43.14803888182244" lon="12.31318027303996"><ele>458.2</ele><time>2026-04-09T12:00:23Z</time></trkpt><trkpt lat="43.14803667775873" lon="12.313088582690822"><ele>458.0</ele><time>2026-04-09T12:00:30Z</time></trkpt><trkpt lat="43.14828074636982" lon="12.31292369967225"><ele>457.99999999999994</ele><time>2026-04-09T12:00:35Z</time></trkpt><trkpt lat="43.14833585312309" lon="12.31285980464426"><ele>458.0</ele><time>2026-04-09T12:00:38Z</time></trkpt><trkpt lat="43.148385468107634" lon="12.31280638172826"><ele>458.0</ele><time>2026-04-09T12:00:40Z</time></trkpt><trkpt lat="43.14842379918379" lon="12.312720793870696"><ele>458.0</ele><time>2026-04-09T12:00:42Z</time></trkpt><trkpt lat="43.148436205334654" lon="12.31259272959892"><ele>457.99999999999994</ele><time>2026-04-09T12:00:45Z</time></trkpt><trkpt lat="43.14843172708246" lon="12.312495882816203"><ele>458.0</ele><time>2026-04-09T12:00:47.001Z</time></trkpt><trkpt lat="43.14846500720055" lon="12.31238333404347"><ele>457.99999999999994</ele><time>2026-04-09T12:00:49.001Z</time></trkpt><trkpt lat="43.14851949689453" lon="12.312269902010478"><ele>458.0</ele><time>2026-04-09T12:01:05.001Z</time></trkpt><trkpt lat="43.14855655223282" lon="12.312173999998434"><ele>458.0</ele><time>2026-04-09T12:01:08.001Z</time></trkpt><trkpt lat="43.148596327377746" lon="12.31208240973506"><ele>458.0</ele><time>2026-04-09T12:01:12.001Z</time></trkpt><trkpt lat="43.14852117687662" lon="12.312016783461107"><ele>457.99999999999994</ele><time>2026-04-09T12:01:16.001Z</time></trkpt><trkpt lat="43.148442586828374" lon="12.31198521999646"><ele>458.0</ele><time>2026-04-09T12:01:19Z</time></trkpt><trkpt lat="43.148368819735126" lon="12.3119414073071"><ele>455.66666666666663</ele><time>2026-04-09T12:01:24Z</time></trkpt><trkpt lat="43.148367546697635" lon="12.311851482363855"><ele>453.3333333333333</ele><time>2026-04-09T12:01:27Z</time></trkpt><trkpt lat="43.1484252190716" lon="12.311777911748596"><ele>451.0</ele><time>2026-04-09T12:01:30Z</time></trkpt><trkpt lat="43.1484844765226" lon="12.311685445487305"><ele>448.66666666666663</ele><time>2026-04-09T12:01:34Z</time></trkpt><trkpt lat="43.148552139188226" lon="12.311615080548393"><ele>446.3333333333333</ele><time>2026-04-09T12:01:36Z</time></trkpt><trkpt lat="43.14860773599929" lon="12.311519414377484"><ele>444.0</ele><time>2026-04-09T12:01:38Z</time></trkpt><trkpt lat="43.14863880176437" lon="12.311440244451017"><ele>444.0</ele><time>2026-04-09T12:01:41Z</time></trkpt><trkpt lat="43.14857634716132" lon="12.311365042899816"><ele>444.0</ele><time>2026-04-09T12:01:46Z</time></trkpt><trkpt lat="43.14850265440372" lon="12.311350640526904"><ele>444.0</ele><time>2026-04-09T12:01:48Z</time></trkpt><trkpt lat="43.14840863112975" lon="12.311358196163047"><ele>444.0</ele><time>2026-04-09T12:01:50Z</time></trkpt><trkpt lat="43.1483250872584" lon="12.311418172668695"><ele>444.0</ele><time>2026-04-09T12:01:52Z</time></trkpt><trkpt lat="43.14822564204098" lon="12.31143156279834"><ele>444.0</ele><time>2026-04-09T12:01:54Z</time></trkpt><trkpt lat="43.14813398041663" lon="12.311375935453405"><ele>445.71428571428567</ele><time>2026-04-09T12:01:56Z</time></trkpt><trkpt lat="43.148122915801224" lon="12.311282134225776"><ele>447.42857142857144</ele><time>2026-04-09T12:02:02Z</time></trkpt><trkpt lat="43.148115822872455" lon="12.311182775909025"><ele>449.1428571428571</ele><time>2026-04-09T12:02:04Z</time></trkpt><trkpt lat="43.14813833889074" lon="12.311282369535887"><ele>450.85714285714283</ele><time>2026-04-09T12:02:42Z</time></trkpt><trkpt lat="43.148155821068485" lon="12.311374155142564"><ele>452.57142857142856</ele><time>2026-04-09T12:02:45Z</time></trkpt><trkpt lat="43.14810257757563" lon="12.311442208931018"><ele>454.2857142857143</ele><time>2026-04-09T12:02:56Z</time></trkpt><trkpt lat="43.14808006208053" lon="12.31153245661973"><ele>456.0</ele><time>2026-04-09T12:03:08.001Z</time></trkpt><trkpt lat="43.14805155013611" lon="12.311615158355968"><ele>456.4285714285714</ele><time>2026-04-09T12:03:19.001Z</time></trkpt><trkpt lat="43.14801798012451" lon="12.311690365586001"><ele>456.8571428571428</ele><time>2026-04-09T12:03:30Z</time></trkpt><trkpt lat="43.14795994606602" lon="12.311731865121407"><ele>457.2857142857143</ele><time>2026-04-09T12:03:48Z</time></trkpt><trkpt lat="43.147898713879485" lon="12.311782987963586"><ele>457.71428571428567</ele><time>2026-04-09T12:04:08Z</time></trkpt><trkpt lat="43.14783794105151" lon="12.311805764197604"><ele>458.1428571428571</ele><time>2026-04-09T12:04:20Z</time></trkpt><trkpt lat="43.14778597986821" lon="12.311750652660432"><ele>458.57142857142856</ele><time>2026-04-09T12:04:36Z</time></trkpt><trkpt lat="43.14776459834255" lon="12.31164613675472"><ele>459.0</ele><time>2026-04-09T12:05:05.001Z</time></trkpt><trkpt lat="43.1477366680091" lon="12.311526213370207"><ele>459.0</ele><time>2026-04-09T12:05:09.001Z</time></trkpt><trkpt lat="43.14771455146865" lon="12.311419260327558"><ele>459.0</ele><time>2026-04-09T12:05:13.001Z</time></trkpt><trkpt lat="43.14766636413672" lon="12.31129753576984"><ele>459.0</ele><time>2026-04-09T12:05:16.001Z</time></trkpt><trkpt lat="43.14765692736453" lon="12.311208125538492"><ele>459.0</ele><time>2026-04-09T12:05:18.001Z</time></trkpt><trkpt lat="43.14757313242031" lon="12.311104685377318"><ele>459.0</ele><time>2026-04-09T12:06:39Z</time></trkpt><trkpt lat="43.14752021348157" lon="12.311049703041443"><ele>459.0</ele><time>2026-04-09T12:06:43.001Z</time></trkpt><trkpt lat="43.14748429796479" lon="12.310971877369436"><ele>458.57142857142856</ele><time>2026-04-09T12:06:45.001Z</time></trkpt><trkpt lat="43.147447956471865" lon="12.31089938179779"><ele>458.1428571428571</ele><time>2026-04-09T12:06:47.001Z</time></trkpt><trkpt lat="43.147401554204905" lon="12.310816245224657"><ele>457.71428571428567</ele><time>2026-04-09T12:06:49.001Z</time></trkpt><trkpt lat="43.1473799860431" lon="12.310726122650006"><ele>457.2857142857143</ele><time>2026-04-09T12:06:51.001Z</time></trkpt><trkpt lat="43.14731858297644" lon="12.310661749120326"><ele>456.8571428571428</ele><time>2026-04-09T12:06:53.001Z</time></trkpt><trkpt lat="43.14727636763826" lon="12.310596518622683"><ele>456.4285714285714</ele><time>2026-04-09T12:06:55.001Z</time></trkpt><trkpt lat="43.1472234591287" lon="12.310520531688596"><ele>456.0</ele><time>2026-04-09T12:06:57.001Z</time></trkpt><trkpt lat="43.14717727200366" lon="12.310436453361962"><ele>457.3333333333333</ele><time>2026-04-09T12:07:00.001Z</time></trkpt><trkpt lat="43.14714148595108" lon="12.310357493786114"><ele>458.66666666666663</ele><time>2026-04-09T12:07:03.001Z</time></trkpt><trkpt lat="43.14711686396602" lon="12.310204869024087"><ele>460.0</ele><time>2026-04-09T12:07:06.001Z</time></trkpt><trkpt lat="43.14706157176797" lon="12.310137752314933"><ele>461.3333333333333</ele><time>2026-04-09T12:07:09.001Z</time></trkpt><trkpt lat="43.14700853631813" lon="12.31008857873024"><ele>462.66666666666663</ele><time>2026-04-09T12:07:12.001Z</time></trkpt><trkpt lat="43.146950731479784" lon="12.310039595809647"><ele>464.0</ele><time>2026-04-09T12:07:15.001Z</time></trkpt><trkpt lat="43.14688564373298" lon="12.310034181561049"><ele>463.99999999999994</ele><time>2026-04-09T12:07:20.001Z</time></trkpt><trkpt lat="43.14682170282692" lon="12.310007521732738"><ele>464.0</ele><time>2026-04-09T12:07:26.001Z</time></trkpt><trkpt lat="43.14670989539867" lon="12.309954805296996"><ele>464.0</ele><time>2026-04-09T12:08:27Z</time></trkpt><trkpt lat="43.146643679022496" lon="12.30992636427807"><ele>464.0</ele><time>2026-04-09T12:08:30Z</time></trkpt><trkpt lat="43.14658113850319" lon="12.309900519084257"><ele>463.99999999999994</ele><time>2026-04-09T12:08:45Z</time></trkpt><trkpt lat="43.14651796364313" lon="12.309860881365344"><ele>464.0</ele><time>2026-04-09T12:08:47Z</time></trkpt><trkpt lat="43.1464548194234" lon="12.309823856989594"><ele>464.4285714285715</ele><time>2026-04-09T12:08:49Z</time></trkpt><trkpt lat="43.14639850233492" lon="12.3097818223306"><ele>464.8571428571429</ele><time>2026-04-09T12:08:51Z</time></trkpt><trkpt lat="43.14631649978624" lon="12.309743968462337"><ele>465.2857142857143</ele><time>2026-04-09T12:08:54Z</time></trkpt><trkpt lat="43.14625798186323" lon="12.309690951810477"><ele>465.7142857142857</ele><time>2026-04-09T12:08:56Z</time></trkpt><trkpt lat="43.146204828089346" lon="12.30963622993289"><ele>466.1428571428571</ele><time>2026-04-09T12:08:58Z</time></trkpt><trkpt lat="43.146149568814884" lon="12.309574735513552"><ele>466.5714285714285</ele><time>2026-04-09T12:09:00Z</time></trkpt><trkpt lat="43.146102535168055" lon="12.309516124793534"><ele>466.99999999999994</ele><time>2026-04-09T12:09:02Z</time></trkpt><trkpt lat="43.14605429701603" lon="12.309455180513506"><ele>466.99999999999994</ele><time>2026-04-09T12:09:04Z</time></trkpt><trkpt lat="43.14599709682485" lon="12.309399866471914"><ele>467.0</ele><time>2026-04-09T12:09:06Z</time></trkpt><trkpt lat="43.145927624923274" lon="12.30935411780707"><ele>467.0</ele><time>2026-04-09T12:09:08Z</time></trkpt><trkpt lat="43.145840915868526" lon="12.309334004837664"><ele>467.0</ele><time>2026-04-09T12:09:10Z</time></trkpt><trkpt lat="43.14573933277631" lon="12.309285658024798"><ele>466.99999999999994</ele><time>2026-04-09T12:09:12Z</time></trkpt><trkpt lat="43.145654626485076" lon="12.309264746174907"><ele>467.0</ele><time>2026-04-09T12:09:14Z</time></trkpt><trkpt lat="43.14555523986884" lon="12.30927131953721"><ele>467.42857142857133</ele><time>2026-04-09T12:09:16Z</time></trkpt><trkpt lat="43.14547892572947" lon="12.309299398958487"><ele>467.85714285714283</ele><time>2026-04-09T12:09:18Z</time></trkpt><trkpt lat="43.14541291010035" lon="12.309309762922071"><ele>468.2857142857142</ele><time>2026-04-09T12:09:20Z</time></trkpt><trkpt lat="43.14534482567365" lon="12.309323544823606"><ele>468.71428571428567</ele><time>2026-04-09T12:09:23Z</time></trkpt><trkpt lat="43.14526009529518" lon="12.30930855343958"><ele>469.1428571428571</ele><time>2026-04-09T12:10:43Z</time></trkpt><trkpt lat="43.14518921458159" lon="12.309321142949658"><ele>469.57142857142856</ele><time>2026-04-09T12:10:46Z</time></trkpt><trkpt lat="43.14512696744369" lon="12.309346883579183"><ele>470.0</ele><time>2026-04-09T12:10:49Z</time></trkpt><trkpt lat="43.14504635887373" lon="12.309396256205423"><ele>469.99999999999994</ele><time>2026-04-09T12:10:52Z</time></trkpt><trkpt lat="43.14498454552528" lon="12.309458736473433"><ele>470.0</ele><time>2026-04-09T12:10:55Z</time></trkpt><trkpt lat="43.144902994647275" lon="12.309506492257286"><ele>470.0</ele><time>2026-04-09T12:10:58Z</time></trkpt><trkpt lat="43.14484495806701" lon="12.309607407126705"><ele>470.0</ele><time>2026-04-09T12:11:00Z</time></trkpt><trkpt lat="43.14481413041155" lon="12.309708068021802"><ele>469.99999999999994</ele><time>2026-04-09T12:11:02Z</time></trkpt><trkpt lat="43.144792124621894" lon="12.309803032589317"><ele>470.0</ele><time>2026-04-09T12:11:04Z</time></trkpt><trkpt lat="43.1447895920846" lon="12.309905047352645"><ele>467.4</ele><time>2026-04-09T12:11:06Z</time></trkpt><trkpt lat="43.14477483591331" lon="12.310023567478636"><ele>464.8</ele><time>2026-04-09T12:11:08Z</time></trkpt><trkpt lat="43.14473742687654" lon="12.31012865175389"><ele>462.20000000000005</ele><time>2026-04-09T12:11:10Z</time></trkpt><trkpt lat="43.14469413022352" lon="12.310237717408869"><ele>459.6</ele><time>2026-04-09T12:11:12Z</time></trkpt><trkpt lat="43.14463927472197" lon="12.310351911088304"><ele>457.0</ele><time>2026-04-09T12:11:14Z</time></trkpt><trkpt lat="43.144590166432515" lon="12.310460936082736"><ele>457.00000000000006</ele><time>2026-04-09T12:11:16Z</time></trkpt><trkpt lat="43.144547293215346" lon="12.31054375095104"><ele>457.0</ele><time>2026-04-09T12:11:18Z</time></trkpt><trkpt lat="43.144517939115666" lon="12.310634658783876"><ele>457.0</ele><time>2026-04-09T12:11:22Z</time></trkpt><trkpt lat="43.14448548493469" lon="12.310718847034709"><ele>457.0</ele><time>2026-04-09T12:11:53Z</time></trkpt><trkpt lat="43.144443628969654" lon="12.310797299686335"><ele>457.00000000000006</ele><time>2026-04-09T12:11:55Z</time></trkpt><trkpt lat="43.144405261504666" lon="12.310880830832645"><ele>457.0</ele><time>2026-04-09T12:11:57Z</time></trkpt><trkpt lat="43.14434481778323" lon="12.310983265228222"><ele>459.40000000000003</ele><time>2026-04-09T12:11:59Z</time></trkpt><trkpt lat="43.14428975714685" lon="12.31111442741068"><ele>461.80000000000007</ele><time>2026-04-09T12:12:01Z</time></trkpt><trkpt lat="43.14428164263351" lon="12.31122473301749"><ele>464.2</ele><time>2026-04-09T12:12:03Z</time></trkpt><trkpt lat="43.14422051428243" lon="12.311353895140906"><ele>466.6</ele><time>2026-04-09T12:12:06Z</time></trkpt><trkpt lat="43.14415962331334" lon="12.311439465776553"><ele>469.0</ele><time>2026-04-09T12:12:08Z</time></trkpt><trkpt lat="43.14411108706221" lon="12.311518036720562"><ele>471.1666666666667</ele><time>2026-04-09T12:12:10Z</time></trkpt><trkpt lat="43.14406879920405" lon="12.311629305975016"><ele>473.33333333333337</ele><time>2026-04-09T12:12:12Z</time></trkpt><trkpt lat="43.14401349402266" lon="12.311766169016863"><ele>475.5</ele><time>2026-04-09T12:12:14Z</time></trkpt><trkpt lat="43.14398253938926" lon="12.311842990125646"><ele>477.66666666666663</ele><time>2026-04-09T12:12:15Z</time></trkpt><trkpt lat="43.14396032758715" lon="12.311935892667385"><ele>479.8333333333333</ele><time>2026-04-09T12:12:16Z</time></trkpt><trkpt lat="43.14394252998915" lon="12.31202700758539"><ele>482.0</ele><time>2026-04-09T12:12:17Z</time></trkpt><trkpt lat="43.14392735142531" lon="12.312122293573216"><ele>479.8333333333333</ele><time>2026-04-09T12:12:19Z</time></trkpt><trkpt lat="43.14391500284278" lon="12.312225078130348"><ele>477.66666666666663</ele><time>2026-04-09T12:12:21Z</time></trkpt><trkpt lat="43.14389671666287" lon="12.312358530954205"><ele>475.5</ele><time>2026-04-09T12:12:23Z</time></trkpt><trkpt lat="43.14388023147803" lon="12.312461480962055"><ele>473.33333333333337</ele><time>2026-04-09T12:12:44Z</time></trkpt><trkpt lat="43.143860681079495" lon="12.312568529942405"><ele>471.1666666666667</ele><time>2026-04-09T12:12:47Z</time></trkpt><trkpt lat="43.14377129617172" lon="12.312521007406122"><ele>469.0</ele><time>2026-04-09T12:13:53Z</time></trkpt><trkpt lat="43.14375845930568" lon="12.312430589453983"><ele>469.0</ele><time>2026-04-09T12:13:56.999Z</time></trkpt><trkpt lat="43.14374516070053" lon="12.312315640319008"><ele>469.0</ele><time>2026-04-09T12:14:06.999Z</time></trkpt><trkpt lat="43.14369026738147" lon="12.312269163528672"><ele>469.0</ele><time>2026-04-09T12:14:12.999Z</time></trkpt><trkpt lat="43.14363050277075" lon="12.31229932014683"><ele>469.0</ele><time>2026-04-09T12:14:17.999Z</time></trkpt><trkpt lat="43.143570513339455" lon="12.312354321212599"><ele>469.0</ele><time>2026-04-09T12:14:21.999Z</time></trkpt><trkpt lat="43.143502672299526" lon="12.312393160685566"><ele>469.0</ele><time>2026-04-09T12:14:25.999Z</time></trkpt><trkpt lat="43.143435214245756" lon="12.312441741375949"><ele>469.0</ele><time>2026-04-09T12:14:39.999Z</time></trkpt><trkpt lat="43.143373721679765" lon="12.3124951563447"><ele>469.00000000000006</ele><time>2026-04-09T12:15:02Z</time></trkpt><trkpt lat="43.14330510678366" lon="12.312543331098835"><ele>469.0</ele><time>2026-04-09T12:15:06Z</time></trkpt><trkpt lat="43.143240606884085" lon="12.312600565205607"><ele>469.0</ele><time>2026-04-09T12:15:11Z</time></trkpt><trkpt lat="43.14318331271545" lon="12.312705974631069"><ele>469.0</ele><time>2026-04-09T12:15:14Z</time></trkpt><trkpt lat="43.14312987085942" lon="12.31275276923074"><ele>469.00000000000006</ele><time>2026-04-09T12:15:16Z</time></trkpt><trkpt lat="43.14307445079982" lon="12.312810888160715"><ele>469.0</ele><time>2026-04-09T12:15:18Z</time></trkpt><trkpt lat="43.143008278859135" lon="12.312863058141364"><ele>467.6666666666667</ele><time>2026-04-09T12:15:20Z</time></trkpt><trkpt lat="43.14294993118864" lon="12.312920498059714"><ele>466.33333333333337</ele><time>2026-04-09T12:15:22Z</time></trkpt><trkpt lat="43.1428933191752" lon="12.312958786828695"><ele>465.0</ele><time>2026-04-09T12:15:25Z</time></trkpt><trkpt lat="43.142828516079554" lon="12.313048595171857"><ele>463.66666666666663</ele><time>2026-04-09T12:15:28Z</time></trkpt><trkpt lat="43.14278404681951" lon="12.313143546079125"><ele>462.3333333333333</ele><time>2026-04-09T12:15:30Z</time></trkpt><trkpt lat="43.14273285920371" lon="12.313224470191331"><ele>461.0</ele><time>2026-04-09T12:15:32Z</time></trkpt><trkpt lat="43.142673918452154" lon="12.313311862928094"><ele>460.99999999999994</ele><time>2026-04-09T12:15:36Z</time></trkpt><trkpt lat="43.14259590178963" lon="12.313407529831935"><ele>461.0</ele><time>2026-04-09T12:15:38Z</time></trkpt><trkpt lat="43.14254035338659" lon="12.313455170815509"><ele>461.0</ele><time>2026-04-09T12:15:40Z</time></trkpt><trkpt lat="43.14246486827882" lon="12.313495830057605"><ele>461.0</ele><time>2026-04-09T12:15:44Z</time></trkpt><trkpt lat="43.14243283628515" lon="12.313387469803912"><ele>460.99999999999994</ele><time>2026-04-09T12:15:48Z</time></trkpt><trkpt lat="43.142410095207254" lon="12.313300185071597"><ele>461.0</ele><time>2026-04-09T12:15:50Z</time></trkpt><trkpt lat="43.142352536801624" lon="12.3132472535574"><ele>461.5714285714286</ele><time>2026-04-09T12:15:52Z</time></trkpt><trkpt lat="43.14229249087393" lon="12.313196339457152"><ele>462.1428571428572</ele><time>2026-04-09T12:15:54Z</time></trkpt><trkpt lat="43.14223230988182" lon="12.313153523837322"><ele>462.7142857142857</ele><time>2026-04-09T12:15:57Z</time></trkpt><trkpt lat="43.14216517367719" lon="12.313087915712304"><ele>463.28571428571433</ele><time>2026-04-09T12:16:00Z</time></trkpt><trkpt lat="43.14212613776301" lon="12.313014948517752"><ele>463.8571428571429</ele><time>2026-04-09T12:16:01.999Z</time></trkpt><trkpt lat="43.142087566871716" lon="12.312943882695969"><ele>464.42857142857144</ele><time>2026-04-09T12:16:02.999Z</time></trkpt><trkpt lat="43.14205088376196" lon="12.312867325635393"><ele>465.0</ele><time>2026-04-09T12:16:04.999Z</time></trkpt><trkpt lat="43.142026565910946" lon="12.312755835536805"><ele>465.0</ele><time>2026-04-09T12:16:06.999Z</time></trkpt><trkpt lat="43.14201965707103" lon="12.312630613668432"><ele>465.0</ele><time>2026-04-09T12:16:08.999Z</time></trkpt><trkpt lat="43.141998973494836" lon="12.312539168948316"><ele>465.0</ele><time>2026-04-09T12:16:09.999Z</time></trkpt><trkpt lat="43.141994603763585" lon="12.31244987953731"><ele>465.0</ele><time>2026-04-09T12:16:10.999Z</time></trkpt><trkpt lat="43.14198253530829" lon="12.312349864899115"><ele>465.0</ele><time>2026-04-09T12:16:11.999Z</time></trkpt><trkpt lat="43.141982502660056" lon="12.312224878256982"><ele>465.0</ele><time>2026-04-09T12:16:14.999Z</time></trkpt><trkpt lat="43.141980025811705" lon="12.312126503391903"><ele>462.6666666666667</ele><time>2026-04-09T12:16:16.999Z</time></trkpt><trkpt lat="43.141936245017945" lon="12.312042533950814"><ele>460.33333333333337</ele><time>2026-04-09T12:16:20.999Z</time></trkpt><trkpt lat="43.141910496672836" lon="12.311951759763312"><ele>458.0</ele><time>2026-04-09T12:16:23.999Z</time></trkpt><trkpt lat="43.14192144592499" lon="12.311832692883018"><ele>455.6666666666667</ele><time>2026-04-09T12:16:25.999Z</time></trkpt><trkpt lat="43.14192256337056" lon="12.311740241184374"><ele>453.33333333333337</ele><time>2026-04-09T12:16:28.999Z</time></trkpt><trkpt lat="43.14189419992707" lon="12.31159291421957"><ele>451.0</ele><time>2026-04-09T12:16:40.999Z</time></trkpt><trkpt lat="43.141872453371946" lon="12.311507291919904"><ele>448.83333333333337</ele><time>2026-04-09T12:17:59.001Z</time></trkpt><trkpt lat="43.141837081193366" lon="12.311395654245468"><ele>446.6666666666667</ele><time>2026-04-09T12:18:03.001Z</time></trkpt><trkpt lat="43.1418369197403" lon="12.311293590607175"><ele>444.5</ele><time>2026-04-09T12:18:05.001Z</time></trkpt><trkpt lat="43.141847260442944" lon="12.311203000159518"><ele>442.33333333333337</ele><time>2026-04-09T12:18:07Z</time></trkpt><trkpt lat="43.14185046642751" lon="12.311093082515832"><ele>440.1666666666667</ele><time>2026-04-09T12:18:09Z</time></trkpt><trkpt lat="43.14182180554177" lon="12.310972707710238"><ele>438.0</ele><time>2026-04-09T12:18:11Z</time></trkpt><trkpt lat="43.14178201327567" lon="12.310884507827588"><ele>438.0</ele><time>2026-04-09T12:18:15Z</time></trkpt><trkpt lat="43.14173108293797" lon="12.310776683980137"><ele>438.0</ele><time>2026-04-09T12:18:18Z</time></trkpt><trkpt lat="43.141675780346226" lon="12.31071616902244"><ele>438.0</ele><time>2026-04-09T12:18:20Z</time></trkpt><trkpt lat="43.14160742157598" lon="12.310606640250763"><ele>438.0</ele><time>2026-04-09T12:18:23Z</time></trkpt><trkpt lat="43.14155020804083" lon="12.310558041034628"><ele>438.0</ele><time>2026-04-09T12:18:25Z</time></trkpt><trkpt lat="43.141478093889475" lon="12.310489449399494"><ele>438.0</ele><time>2026-04-09T12:18:27Z</time></trkpt><trkpt lat="43.141429138339156" lon="12.310431856127032"><ele>435.2857142857143</ele><time>2026-04-09T12:18:29Z</time></trkpt><trkpt lat="43.14135682231879" lon="12.310419330503278"><ele>432.57142857142856</ele><time>2026-04-09T12:18:31Z</time></trkpt><trkpt lat="43.14128381662667" lon="12.310398807389141"><ele>429.85714285714283</ele><time>2026-04-09T12:18:34Z</time></trkpt><trkpt lat="43.14121488960846" lon="12.310380076040797"><ele>427.1428571428571</ele><time>2026-04-09T12:18:37Z</time></trkpt><trkpt lat="43.14114741372386" lon="12.310373855014156"><ele>424.42857142857144</ele><time>2026-04-09T12:18:40Z</time></trkpt><trkpt lat="43.1410802694263" lon="12.310342784431867"><ele>421.71428571428567</ele><time>2026-04-09T12:18:43Z</time></trkpt><trkpt lat="43.141008640056235" lon="12.310327938544106"><ele>419.0</ele><time>2026-04-09T12:18:46Z</time></trkpt><trkpt lat="43.14093287092247" lon="12.310310524364935"><ele>419.0</ele><time>2026-04-09T12:18:55Z</time></trkpt><trkpt lat="43.14085893362704" lon="12.310247008508266"><ele>419.0</ele><time>2026-04-09T12:18:58Z</time></trkpt><trkpt lat="43.140794295771286" lon="12.310215457305002"><ele>419.0</ele><time>2026-04-09T12:19:01.001Z</time></trkpt><trkpt lat="43.14072577113407" lon="12.310177901405414"><ele>419.0</ele><time>2026-04-09T12:19:07.001Z</time></trkpt><trkpt lat="43.138708104659194" lon="12.310281831551071"><ele>419.66666666666663</ele><time>2026-04-09T12:20:44.001Z</time></trkpt><trkpt lat="43.13863142135915" lon="12.310287193969884"><ele>420.3333333333333</ele><time>2026-04-09T12:20:53.001Z</time></trkpt><trkpt lat="43.13855561249491" lon="12.31028901962863"><ele>421.0</ele><time>2026-04-09T12:20:55.001Z</time></trkpt><trkpt lat="43.138490275124916" lon="12.310284422239118"><ele>421.66666666666663</ele><time>2026-04-09T12:20:57.001Z</time></trkpt><trkpt lat="43.13840401236618" lon="12.310272159745395"><ele>422.3333333333333</ele><time>2026-04-09T12:21:00.001Z</time></trkpt><trkpt lat="43.13831829475115" lon="12.31025569750096"><ele>423.0</ele><time>2026-04-09T12:21:03.001Z</time></trkpt><trkpt lat="43.13824626420422" lon="12.310248280850544"><ele>424.1428571428571</ele><time>2026-04-09T12:21:06.001Z</time></trkpt><trkpt lat="43.13818260657515" lon="12.310231022393738"><ele>425.28571428571433</ele><time>2026-04-09T12:21:08.001Z</time></trkpt><trkpt lat="43.13810250003307" lon="12.310236119859628"><ele>426.42857142857144</ele><time>2026-04-09T12:21:11.001Z</time></trkpt><trkpt lat="43.13801340481522" lon="12.310258090688723"><ele>427.57142857142856</ele><time>2026-04-09T12:21:15.001Z</time></trkpt><trkpt lat="43.13794872600701" lon="12.310265180931923"><ele>428.71428571428567</ele><time>2026-04-09T12:21:18.001Z</time></trkpt><trkpt lat="43.13786890258409" lon="12.310288825412352"><ele>429.8571428571429</ele><time>2026-04-09T12:21:22.001Z</time></trkpt><trkpt lat="43.137818266615135" lon="12.310346803576373"><ele>431.0</ele><time>2026-04-09T12:21:26.001Z</time></trkpt><trkpt lat="43.137742149063904" lon="12.310341031223938"><ele>430.99999999999994</ele><time>2026-04-09T12:21:30.001Z</time></trkpt><trkpt lat="43.13769341006031" lon="12.310255725426838"><ele>431.0</ele><time>2026-04-09T12:21:34.001Z</time></trkpt><trkpt lat="43.1376409751429" lon="12.310191746190599"><ele>431.0</ele><time>2026-04-09T12:21:37.001Z</time></trkpt><trkpt lat="43.137616246619785" lon="12.310079155420256"><ele>431.0</ele><time>2026-04-09T12:21:40.001Z</time></trkpt><trkpt lat="43.137648097881986" lon="12.309984777637295"><ele>430.99999999999994</ele><time>2026-04-09T12:21:42.001Z</time></trkpt><trkpt lat="43.13767084705862" lon="12.309880804905035"><ele>431.0</ele><time>2026-04-09T12:21:44.001Z</time></trkpt><trkpt lat="43.13771378034658" lon="12.309783387233768"><ele>432.6</ele><time>2026-04-09T12:21:47.001Z</time></trkpt><trkpt lat="43.13779144445444" lon="12.309581076735325"><ele>434.20000000000005</ele><time>2026-04-09T12:22:09.001Z</time></trkpt><trkpt lat="43.1378643301602" lon="12.30951298404759"><ele>435.79999999999995</ele><time>2026-04-09T12:22:11.001Z</time></trkpt><trkpt lat="43.1379240585705" lon="12.30944395920737"><ele>437.4</ele><time>2026-04-09T12:22:13.001Z</time></trkpt><trkpt lat="43.13800692349295" lon="12.309349975951426"><ele>439.0</ele><time>2026-04-09T12:22:16.001Z</time></trkpt><trkpt lat="43.13809814976041" lon="12.30925563298811"><ele>439.0</ele><time>2026-04-09T12:22:18.001Z</time></trkpt><trkpt lat="43.13817951790205" lon="12.30914486749079"><ele>439.0</ele><time>2026-04-09T12:22:20.001Z</time></trkpt><trkpt lat="43.138243150636534" lon="12.309041247299309"><ele>439.0</ele><time>2026-04-09T12:22:22.001Z</time></trkpt><trkpt lat="43.138325099136836" lon="12.30892377795353"><ele>439.0</ele><time>2026-04-09T12:22:24.001Z</time></trkpt><trkpt lat="43.13836215376161" lon="12.308853097444867"><ele>439.0</ele><time>2026-04-09T12:22:25.001Z</time></trkpt><trkpt lat="43.13841742048988" lon="12.308710050566672"><ele>435.2</ele><time>2026-04-09T12:22:27.001Z</time></trkpt><trkpt lat="43.138483475167526" lon="12.308595356721495"><ele>431.4</ele><time>2026-04-09T12:22:29.001Z</time></trkpt><trkpt lat="43.13848993056195" lon="12.308448353971746"><ele>427.6</ele><time>2026-04-09T12:22:31.001Z</time></trkpt><trkpt lat="43.13845456303605" lon="12.308336377878058"><ele>423.8</ele><time>2026-04-09T12:22:33.001Z</time></trkpt><trkpt lat="43.13843734714383" lon="12.308212074397673"><ele>420.0</ele><time>2026-04-09T12:22:35.001Z</time></trkpt><trkpt lat="43.13841668680258" lon="12.30807987223411"><ele>417.8</ele><time>2026-04-09T12:22:37.001Z</time></trkpt><trkpt lat="43.13842470785854" lon="12.307961292510646"><ele>415.6</ele><time>2026-04-09T12:22:39.001Z</time></trkpt><trkpt lat="43.13845826673209" lon="12.30778171713195"><ele>413.4</ele><time>2026-04-09T12:22:41.001Z</time></trkpt><trkpt lat="43.138469935901746" lon="12.307626926395326"><ele>411.2</ele><time>2026-04-09T12:22:43.001Z</time></trkpt><trkpt lat="43.13849352181127" lon="12.307509250497723"><ele>409.0</ele><time>2026-04-09T12:22:45.001Z</time></trkpt><trkpt lat="43.13848575012942" lon="12.307415475086263"><ele>409.00000000000006</ele><time>2026-04-09T12:22:49.001Z</time></trkpt><trkpt lat="43.13843957560688" lon="12.307305719360865"><ele>409.0</ele><time>2026-04-09T12:22:56.001Z</time></trkpt><trkpt lat="43.13837718873521" lon="12.307256840540045"><ele>409.0</ele><time>2026-04-09T12:22:58.001Z</time></trkpt><trkpt lat="43.13831794491586" lon="12.307218468169548"><ele>409.0</ele><time>2026-04-09T12:23:00.001Z</time></trkpt><trkpt lat="43.13825639312139" lon="12.307195090152623"><ele>409.00000000000006</ele><time>2026-04-09T12:23:04.001Z</time></trkpt><trkpt lat="43.13816853419479" lon="12.307158633206768"><ele>409.0</ele><time>2026-04-09T12:23:07.001Z</time></trkpt><trkpt lat="43.138093451847304" lon="12.307132853457242"><ele>406.6666666666667</ele><time>2026-04-09T12:23:09.001Z</time></trkpt><trkpt lat="43.13802075292308" lon="12.307104440155054"><ele>404.33333333333337</ele><time>2026-04-09T12:23:11.001Z</time></trkpt><trkpt lat="43.13795550206905" lon="12.307090762532507"><ele>402.0</ele><time>2026-04-09T12:23:13.001Z</time></trkpt><trkpt lat="43.13788247355412" lon="12.307083055748606"><ele>399.66666666666663</ele><time>2026-04-09T12:23:15.001Z</time></trkpt><trkpt lat="43.13780017581234" lon="12.307081392728632"><ele>397.3333333333333</ele><time>2026-04-09T12:23:17.001Z</time></trkpt><trkpt lat="43.137676659784034" lon="12.30706889915435"><ele>395.0</ele><time>2026-04-09T12:26:45.001Z</time></trkpt><trkpt lat="43.137611241067745" lon="12.307047138571198"><ele>395.0</ele><time>2026-04-09T12:26:48.001Z</time></trkpt><trkpt lat="43.13748511804114" lon="12.307032454079364"><ele>395.0</ele><time>2026-04-09T12:26:51.001Z</time></trkpt><trkpt lat="43.13740065252522" lon="12.307032744224964"><ele>395.0</ele><time>2026-04-09T12:26:53.001Z</time></trkpt><trkpt lat="43.13730623524688" lon="12.307031744907666"><ele>395.0</ele><time>2026-04-09T12:26:55.001Z</time></trkpt><trkpt lat="43.13716748643124" lon="12.307031718021506"><ele>395.0</ele><time>2026-04-09T12:26:57.001Z</time></trkpt><trkpt lat="43.13707328014718" lon="12.307000211113097"><ele>396.49999999999994</ele><time>2026-04-09T12:26:59.001Z</time></trkpt><trkpt lat="43.137024367759395" lon="12.306942767556137"><ele>398.0</ele><time>2026-04-09T12:27:01.001Z</time></trkpt><trkpt lat="43.13697073569891" lon="12.306843537079967"><ele>399.5</ele><time>2026-04-09T12:27:04.001Z</time></trkpt><trkpt lat="43.13691832780514" lon="12.306754682614315"><ele>401.0</ele><time>2026-04-09T12:27:08.001Z</time></trkpt><trkpt lat="43.13691680544064" lon="12.306635947223155"><ele>402.49999999999994</ele><time>2026-04-09T12:27:11.001Z</time></trkpt><trkpt lat="43.136902617434146" lon="12.30654810144266"><ele>404.0</ele><time>2026-04-09T12:27:13.001Z</time></trkpt><trkpt lat="43.136929551837746" lon="12.306454334107617"><ele>405.99999999999994</ele><time>2026-04-09T12:27:15.001Z</time></trkpt><trkpt lat="43.13699707686755" lon="12.306394705963088"><ele>408.0</ele><time>2026-04-09T12:27:17.001Z</time></trkpt><trkpt lat="43.13704299603199" lon="12.306302985826715"><ele>410.0</ele><time>2026-04-09T12:27:19.001Z</time></trkpt><trkpt lat="43.13707708918118" lon="12.306180842490404"><ele>412.0</ele><time>2026-04-09T12:27:21.001Z</time></trkpt><trkpt lat="43.13713518718918" lon="12.306129147611506"><ele>413.99999999999994</ele><time>2026-04-09T12:27:23.001Z</time></trkpt><trkpt lat="43.137206770788865" lon="12.306061718494437"><ele>416.0</ele><time>2026-04-09T12:27:25.001Z</time></trkpt><trkpt lat="43.13729776603564" lon="12.306012413960461"><ele>416.0</ele><time>2026-04-09T12:27:27.001Z</time></trkpt><trkpt lat="43.13738143994735" lon="12.305953601748373"><ele>416.0</ele><time>2026-04-09T12:27:29.001Z</time></trkpt><trkpt lat="43.1374725335602" lon="12.305918664354346"><ele>416.0</ele><time>2026-04-09T12:27:31.001Z</time></trkpt><trkpt lat="43.13756908480149" lon="12.305934501974301"><ele>416.0</ele><time>2026-04-09T12:27:33.001Z</time></trkpt><trkpt lat="43.1376482451498" lon="12.305910921799544"><ele>416.0</ele><time>2026-04-09T12:27:34.001Z</time></trkpt><trkpt lat="43.13774368287805" lon="12.30587803220245"><ele>415.49999999999994</ele><time>2026-04-09T12:27:36.001Z</time></trkpt><trkpt lat="43.1378020338214" lon="12.305824581558449"><ele>415.0</ele><time>2026-04-09T12:27:38.001Z</time></trkpt><trkpt lat="43.13788284640846" lon="12.305735232184114"><ele>414.5</ele><time>2026-04-09T12:27:40.001Z</time></trkpt><trkpt lat="43.13794696369801" lon="12.305655908162688"><ele>414.0</ele><time>2026-04-09T12:27:42.001Z</time></trkpt><trkpt lat="43.1380119167308" lon="12.305569314107556"><ele>413.49999999999994</ele><time>2026-04-09T12:27:44.001Z</time></trkpt><trkpt lat="43.1380718727901" lon="12.305468250651082"><ele>413.0</ele><time>2026-04-09T12:27:46.001Z</time></trkpt><trkpt lat="43.138133565744894" lon="12.305370771996524"><ele>413.0</ele><time>2026-04-09T12:27:48.001Z</time></trkpt><trkpt lat="43.13818091230627" lon="12.305275894244051"><ele>413.0</ele><time>2026-04-09T12:27:50.001Z</time></trkpt><trkpt lat="43.138237130727454" lon="12.305163943957508"><ele>413.0</ele><time>2026-04-09T12:27:52.001Z</time></trkpt><trkpt lat="43.138281399693646" lon="12.305046053679558"><ele>413.0</ele><time>2026-04-09T12:27:54.001Z</time></trkpt><trkpt lat="43.138335972583505" lon="12.304959514601592"><ele>413.0</ele><time>2026-04-09T12:27:56.001Z</time></trkpt><trkpt lat="43.138391654310446" lon="12.304860261195785"><ele>411.79999999999995</ele><time>2026-04-09T12:27:58.001Z</time></trkpt><trkpt lat="43.13845643159516" lon="12.304755903635085"><ele>410.6</ele><time>2026-04-09T12:28:00.001Z</time></trkpt><trkpt lat="43.138544177696645" lon="12.304676479988743"><ele>409.4</ele><time>2026-04-09T12:28:02.001Z</time></trkpt><trkpt lat="43.138605027699555" lon="12.304574109604703"><ele>408.20000000000005</ele><time>2026-04-09T12:28:04.001Z</time></trkpt><trkpt lat="43.138674474473" lon="12.304493056042755"><ele>407.0</ele><time>2026-04-09T12:28:06.001Z</time></trkpt><trkpt lat="43.13871517211797" lon="12.304422310568857"><ele>407.0</ele><time>2026-04-09T12:28:07.001Z</time></trkpt><trkpt lat="43.138782050095585" lon="12.30432953299149"><ele>407.0</ele><time>2026-04-09T12:28:09.001Z</time></trkpt><trkpt lat="43.138849220889675" lon="12.304240107892152"><ele>407.0</ele><time>2026-04-09T12:28:11.001Z</time></trkpt><trkpt lat="43.138874116356966" lon="12.304144112749922"><ele>407.0</ele><time>2026-04-09T12:28:12.001Z</time></trkpt><trkpt lat="43.138909596820326" lon="12.304008604174298"><ele>407.0</ele><time>2026-04-09T12:28:14.001Z</time></trkpt><trkpt lat="43.138949058538024" lon="12.303860313888944"><ele>407.40000000000003</ele><time>2026-04-09T12:28:16.001Z</time></trkpt><trkpt lat="43.13895716241302" lon="12.303681949433715"><ele>407.8</ele><time>2026-04-09T12:28:18.001Z</time></trkpt><trkpt lat="43.13895172331145" lon="12.303582420748533"><ele>408.2</ele><time>2026-04-09T12:28:19.001Z</time></trkpt><trkpt lat="43.138952871035755" lon="12.303489420028198"><ele>408.6</ele><time>2026-04-09T12:28:20.001Z</time></trkpt><trkpt lat="43.13899969003811" lon="12.30335022659714"><ele>409.0</ele><time>2026-04-09T12:28:22.001Z</time></trkpt><trkpt lat="43.13906429227955" lon="12.303282815862161"><ele>407.83333333333337</ele><time>2026-04-09T12:28:23.001Z</time></trkpt><trkpt lat="43.139147649992665" lon="12.303197176011915"><ele>406.6666666666667</ele><time>2026-04-09T12:28:25.001Z</time></trkpt><trkpt lat="43.13919252408231" lon="12.303128043193388"><ele>405.5</ele><time>2026-04-09T12:28:27.001Z</time></trkpt><trkpt lat="43.13923994476662" lon="12.303059570606123"><ele>404.33333333333337</ele><time>2026-04-09T12:28:29.001Z</time></trkpt><trkpt lat="43.139313125213945" lon="12.303016792410617"><ele>403.1666666666667</ele><time>2026-04-09T12:28:31.001Z</time></trkpt><trkpt lat="43.13941465978843" lon="12.302980457273165"><ele>402.0</ele><time>2026-04-09T12:28:33.001Z</time></trkpt><trkpt lat="43.13950962557257" lon="12.302972340918087"><ele>402.0</ele><time>2026-04-09T12:28:35.001Z</time></trkpt><trkpt lat="43.139599820926556" lon="12.302918365798295"><ele>402.0</ele><time>2026-04-09T12:28:37Z</time></trkpt><trkpt lat="43.139662287879695" lon="12.302882397743247"><ele>402.0</ele><time>2026-04-09T12:28:38Z</time></trkpt><trkpt lat="43.13973370768208" lon="12.302810848495874"><ele>402.0</ele><time>2026-04-09T12:28:40Z</time></trkpt><trkpt lat="43.13979950162405" lon="12.302727702908207"><ele>402.0</ele><time>2026-04-09T12:28:44Z</time></trkpt><trkpt lat="43.13988854402296" lon="12.302640069912743"><ele>400.20000000000005</ele><time>2026-04-09T12:28:47Z</time></trkpt><trkpt lat="43.1399643375553" lon="12.3025560761238"><ele>398.4</ele><time>2026-04-09T12:28:49Z</time></trkpt><trkpt lat="43.14001881808826" lon="12.30244209189726"><ele>396.6</ele><time>2026-04-09T12:28:51Z</time></trkpt><trkpt lat="43.140072549058026" lon="12.302334327824756"><ele>394.79999999999995</ele><time>2026-04-09T12:28:53Z</time></trkpt><trkpt lat="43.140121063668595" lon="12.302235298324934"><ele>393.0</ele><time>2026-04-09T12:28:55Z</time></trkpt><trkpt lat="43.140179195337886" lon="12.302140533874168"><ele>392.6666666666667</ele><time>2026-04-09T12:28:57Z</time></trkpt><trkpt lat="43.14023276156725" lon="12.302039995405254"><ele>392.33333333333337</ele><time>2026-04-09T12:28:59Z</time></trkpt><trkpt lat="43.14028081355149" lon="12.301938106067528"><ele>392.0</ele><time>2026-04-09T12:29:01Z</time></trkpt><trkpt lat="43.14034098321832" lon="12.301878743044886"><ele>391.6666666666667</ele><time>2026-04-09T12:29:03Z</time></trkpt><trkpt lat="43.14039912061695" lon="12.301835856700354"><ele>391.33333333333337</ele><time>2026-04-09T12:29:05Z</time></trkpt><trkpt lat="43.14044685111012" lon="12.30177026676159"><ele>391.0</ele><time>2026-04-09T12:29:08Z</time></trkpt><trkpt lat="43.14050346135628" lon="12.301720727636262"><ele>391.00000000000006</ele><time>2026-04-09T12:29:24Z</time></trkpt><trkpt lat="43.14059618512254" lon="12.301699864843409"><ele>391.0</ele><time>2026-04-09T12:29:27Z</time></trkpt><trkpt lat="43.14069821274808" lon="12.30168579507149"><ele>391.0</ele><time>2026-04-09T12:29:30Z</time></trkpt><trkpt lat="43.14077387067354" lon="12.30170342240303"><ele>391.0</ele><time>2026-04-09T12:29:32Z</time></trkpt><trkpt lat="43.14084084841847" lon="12.301724555782812"><ele>391.00000000000006</ele><time>2026-04-09T12:29:34Z</time></trkpt><trkpt lat="43.140919462472695" lon="12.30175160790078"><ele>391.0</ele><time>2026-04-09T12:29:37Z</time></trkpt><trkpt lat="43.14101261648661" lon="12.30174360467291"><ele>389.57142857142856</ele><time>2026-04-09T12:29:41Z</time></trkpt><trkpt lat="43.14105503169214" lon="12.301660111711312"><ele>388.1428571428571</ele><time>2026-04-09T12:29:43Z</time></trkpt><trkpt lat="43.14108676393277" lon="12.30157759261596"><ele>386.71428571428567</ele><time>2026-04-09T12:29:48Z</time></trkpt><trkpt lat="43.1411375270192" lon="12.30152496434797"><ele>385.2857142857143</ele><time>2026-04-09T12:29:51Z</time></trkpt><trkpt lat="43.14118740359333" lon="12.301454862116296"><ele>383.8571428571429</ele><time>2026-04-09T12:29:54Z</time></trkpt><trkpt lat="43.14124745882053" lon="12.30138671170863"><ele>382.4285714285714</ele><time>2026-04-09T12:29:58Z</time></trkpt><trkpt lat="43.1412951893163" lon="12.301321143184381"><ele>381.0</ele><time>2026-04-09T12:30:00Z</time></trkpt><trkpt lat="43.14134950502908" lon="12.301254111845697"><ele>379.57142857142856</ele><time>2026-04-09T12:30:03Z</time></trkpt><trkpt lat="43.14140584964359" lon="12.301201902882385"><ele>378.14285714285717</ele><time>2026-04-09T12:30:05Z</time></trkpt><trkpt lat="43.14146093397294" lon="12.301154437819804"><ele>376.7142857142857</ele><time>2026-04-09T12:30:08Z</time></trkpt><trkpt lat="43.141524091126385" lon="12.301084956579443"><ele>375.2857142857143</ele><time>2026-04-09T12:30:11Z</time></trkpt><trkpt lat="43.14157949723959" lon="12.30101723172948"><ele>373.8571428571429</ele><time>2026-04-09T12:30:19Z</time></trkpt><trkpt lat="43.141631508544826" lon="12.300962224296926"><ele>372.42857142857144</ele><time>2026-04-09T12:30:22Z</time></trkpt><trkpt lat="43.141688866184325" lon="12.300919998540948"><ele>371.0</ele><time>2026-04-09T12:30:25Z</time></trkpt><trkpt lat="43.14176256046687" lon="12.300887787977201"><ele>370.0</ele><time>2026-04-09T12:30:29Z</time></trkpt><trkpt lat="43.141831107016245" lon="12.30085283691553"><ele>369.0</ele><time>2026-04-09T12:30:33Z</time></trkpt><trkpt lat="43.14189432248236" lon="12.300821520743156"><ele>368.0</ele><time>2026-04-09T12:30:36Z</time></trkpt><trkpt lat="43.141950442690394" lon="12.300775645283615"><ele>367.0</ele><time>2026-04-09T12:30:39Z</time></trkpt><trkpt lat="43.142001601160516" lon="12.300711525407138"><ele>366.0</ele><time>2026-04-09T12:30:43Z</time></trkpt><trkpt lat="43.14206712161683" lon="12.300662610096111"><ele>365.0</ele><time>2026-04-09T12:30:47Z</time></trkpt><trkpt lat="43.142146917567594" lon="12.300624014590863"><ele>364.0</ele><time>2026-04-09T12:30:52Z</time></trkpt><trkpt lat="43.14220269367142" lon="12.300550927896392"><ele>364.0</ele><time>2026-04-09T12:30:55Z</time></trkpt><trkpt lat="43.14227359581805" lon="12.300566204441031"><ele>364.0</ele><time>2026-04-09T12:30:59Z</time></trkpt><trkpt lat="43.142310287848396" lon="12.300647224431335"><ele>364.0</ele><time>2026-04-09T12:31:08Z</time></trkpt><trkpt lat="43.142341525856416" lon="12.30072778883017"><ele>364.0</ele><time>2026-04-09T12:31:13Z</time></trkpt><trkpt lat="43.142369333943606" lon="12.300813253087222"><ele>364.0</ele><time>2026-04-09T12:31:17Z</time></trkpt><trkpt lat="43.142399360726934" lon="12.300900255955286"><ele>364.0</ele><time>2026-04-09T12:31:19Z</time></trkpt><trkpt lat="43.14241107580959" lon="12.301018147415297"><ele>364.0</ele><time>2026-04-09T12:31:22Z</time></trkpt><trkpt lat="43.14241403734092" lon="12.301113011515724"><ele>362.4</ele><time>2026-04-09T12:31:24Z</time></trkpt><trkpt lat="43.142446914008644" lon="12.30122294383712"><ele>360.79999999999995</ele><time>2026-04-09T12:31:26Z</time></trkpt><trkpt lat="43.14248343242407" lon="12.301326485997738"><ele>359.20000000000005</ele><time>2026-04-09T12:31:28Z</time></trkpt><trkpt lat="43.14254325968413" lon="12.301433088446034"><ele>357.6</ele><time>2026-04-09T12:31:30Z</time></trkpt><trkpt lat="43.14262827478403" lon="12.301570400812631"><ele>356.0</ele><time>2026-04-09T12:31:32Z</time></trkpt><trkpt lat="43.142678976400745" lon="12.301644113706205"><ele>356.0</ele><time>2026-04-09T12:31:33Z</time></trkpt><trkpt lat="43.14271384721801" lon="12.301726377808615"><ele>356.0</ele><time>2026-04-09T12:31:34Z</time></trkpt><trkpt lat="43.14275327967212" lon="12.301808806251033"><ele>356.0</ele><time>2026-04-09T12:31:35Z</time></trkpt><trkpt lat="43.14281276725303" lon="12.301882674585869"><ele>356.0</ele><time>2026-04-09T12:31:37Z</time></trkpt><trkpt lat="43.142874357323855" lon="12.301948595558393"><ele>356.0</ele><time>2026-04-09T12:31:39Z</time></trkpt><trkpt lat="43.14293354626262" lon="12.302024142705491"><ele>356.0</ele><time>2026-04-09T12:31:41Z</time></trkpt><trkpt lat="43.14300689559516" lon="12.302105343798244"><ele>355.99999999999994</ele><time>2026-04-09T12:31:43Z</time></trkpt><trkpt lat="43.14306655823829" lon="12.302162618765658"><ele>356.0</ele><time>2026-04-09T12:31:45Z</time></trkpt><trkpt lat="43.14314061601064" lon="12.302211856667986"><ele>356.0</ele><time>2026-04-09T12:31:49Z</time></trkpt><trkpt lat="43.14320950168841" lon="12.30225594769573"><ele>356.0</ele><time>2026-04-09T12:31:53Z</time></trkpt><trkpt lat="43.1432388378526" lon="12.302177370791107"><ele>356.0</ele><time>2026-04-09T12:32:08Z</time></trkpt><trkpt lat="43.143293862911825" lon="12.302101957482373"><ele>355.99999999999994</ele><time>2026-04-09T12:32:12Z</time></trkpt><trkpt lat="43.14334457413066" lon="12.302042155896189"><ele>356.0</ele><time>2026-04-09T12:32:16Z</time></trkpt><trkpt lat="43.143411135393954" lon="12.30202279480794"><ele>352.1666666666667</ele><time>2026-04-09T12:32:21Z</time></trkpt><trkpt lat="43.14348686343633" lon="12.30199924951382"><ele>348.33333333333337</ele><time>2026-04-09T12:32:26Z</time></trkpt><trkpt lat="43.14355834669595" lon="12.301949920822947"><ele>344.5</ele><time>2026-04-09T12:32:29Z</time></trkpt><trkpt lat="43.143589323277766" lon="12.301872623863115"><ele>340.6666666666667</ele><time>2026-04-09T12:32:31Z</time></trkpt><trkpt lat="43.14366397441454" lon="12.301825636423867"><ele>336.8333333333333</ele><time>2026-04-09T12:32:35Z</time></trkpt><trkpt lat="43.143738568220016" lon="12.301842296495824"><ele>333.0</ele><time>2026-04-09T12:32:38Z</time></trkpt><trkpt lat="43.143823308068946" lon="12.301819762318148"><ele>333.0</ele><time>2026-04-09T12:32:42Z</time></trkpt><trkpt lat="43.14388620129779" lon="12.301784200763917"><ele>333.0</ele><time>2026-04-09T12:32:45Z</time></trkpt><trkpt lat="43.143952486387064" lon="12.301730617785008"><ele>333.0</ele><time>2026-04-09T12:32:50Z</time></trkpt><trkpt lat="43.14400890981322" lon="12.301638444293554"><ele>333.0</ele><time>2026-04-09T12:32:53Z</time></trkpt><trkpt lat="43.14406151143783" lon="12.301562640087967"><ele>333.0</ele><time>2026-04-09T12:32:56Z</time></trkpt><trkpt lat="43.14412286078464" lon="12.30150183256037"><ele>333.0</ele><time>2026-04-09T12:33:00Z</time></trkpt><trkpt lat="43.14418516001498" lon="12.301474699467693"><ele>331.3333333333333</ele><time>2026-04-09T12:33:02Z</time></trkpt><trkpt lat="43.14424683178727" lon="12.30143644541034"><ele>329.6666666666667</ele><time>2026-04-09T12:33:04Z</time></trkpt><trkpt lat="43.14431478765742" lon="12.301355855957983"><ele>328.0</ele><time>2026-04-09T12:33:07Z</time></trkpt><trkpt lat="43.144339860604916" lon="12.301251882085783"><ele>326.33333333333337</ele><time>2026-04-09T12:33:10Z</time></trkpt><trkpt lat="43.14439344978317" lon="12.301194840017256"><ele>324.6666666666667</ele><time>2026-04-09T12:33:12Z</time></trkpt><trkpt lat="43.144475107381076" lon="12.301142505457104"><ele>323.0</ele><time>2026-04-09T12:33:16Z</time></trkpt><trkpt lat="43.14452645133643" lon="12.301091827491138"><ele>321.83333333333337</ele><time>2026-04-09T12:33:19Z</time></trkpt><trkpt lat="43.14457381904804" lon="12.301021834790903"><ele>320.6666666666667</ele><time>2026-04-09T12:33:22Z</time></trkpt><trkpt lat="43.14464773586581" lon="12.300980037005962"><ele>319.5</ele><time>2026-04-09T12:33:26Z</time></trkpt><trkpt lat="43.144722099249876" lon="12.300934474881753"><ele>318.3333333333333</ele><time>2026-04-09T12:33:30Z</time></trkpt><trkpt lat="43.1448046384995" lon="12.300897063197983"><ele>317.16666666666663</ele><time>2026-04-09T12:33:34Z</time></trkpt><trkpt lat="43.144880605932364" lon="12.300850691564527"><ele>316.0</ele><time>2026-04-09T12:33:38Z</time></trkpt><trkpt lat="43.144941565276135" lon="12.300809351349457"><ele>314.8571428571429</ele><time>2026-04-09T12:33:49Z</time></trkpt><trkpt lat="43.145003613060005" lon="12.300777364407308"><ele>313.7142857142857</ele><time>2026-04-09T12:33:52Z</time></trkpt><trkpt lat="43.14507538318866" lon="12.30074722434743"><ele>312.57142857142856</ele><time>2026-04-09T12:33:56Z</time></trkpt><trkpt lat="43.145123712433076" lon="12.300683306120883"><ele>311.42857142857144</ele><time>2026-04-09T12:34:00Z</time></trkpt><trkpt lat="43.145165219512684" lon="12.30061445151331"><ele>310.2857142857143</ele><time>2026-04-09T12:34:04Z</time></trkpt><trkpt lat="43.14523163473602" lon="12.300562889711856"><ele>309.14285714285717</ele><time>2026-04-09T12:34:09Z</time></trkpt><trkpt lat="43.145279442549" lon="12.300494280266118"><ele>308.0</ele><time>2026-04-09T12:34:12Z</time></trkpt><trkpt lat="43.145347457769915" lon="12.300442082097394"><ele>305.83333333333337</ele><time>2026-04-09T12:34:15Z</time></trkpt><trkpt lat="43.14541018867621" lon="12.300365114741416"><ele>303.6666666666667</ele><time>2026-04-09T12:34:19Z</time></trkpt><trkpt lat="43.145467007552384" lon="12.300305309323312"><ele>301.5</ele><time>2026-04-09T12:34:22Z</time></trkpt><trkpt lat="43.14552187048077" lon="12.300254944223992"><ele>299.3333333333333</ele><time>2026-04-09T12:34:24Z</time></trkpt><trkpt lat="43.145594991718426" lon="12.300185540697848"><ele>297.16666666666663</ele><time>2026-04-09T12:34:27Z</time></trkpt><trkpt lat="43.14567098111098" lon="12.300111356437617"><ele>295.0</ele><time>2026-04-09T12:34:30Z</time></trkpt><trkpt lat="43.14572661206272" lon="12.300047444241137"><ele>294.8333333333333</ele><time>2026-04-09T12:34:32Z</time></trkpt><trkpt lat="43.14580098907876" lon="12.299946046916236"><ele>294.66666666666663</ele><time>2026-04-09T12:34:35Z</time></trkpt><trkpt lat="43.145856522609314" lon="12.299887148599566"><ele>294.5</ele><time>2026-04-09T12:34:37Z</time></trkpt><trkpt lat="43.14595246216" lon="12.299843499408631"><ele>294.3333333333333</ele><time>2026-04-09T12:34:40Z</time></trkpt><trkpt lat="43.14602090464292" lon="12.299857611433074"><ele>294.1666666666667</ele><time>2026-04-09T12:34:43Z</time></trkpt><trkpt lat="43.14609222690135" lon="12.299823314531746"><ele>294.0</ele><time>2026-04-09T12:34:45Z</time></trkpt><trkpt lat="43.14614923638458" lon="12.29975766745934"><ele>291.8333333333333</ele><time>2026-04-09T12:34:47Z</time></trkpt><trkpt lat="43.14619370527584" lon="12.299696167965019"><ele>289.6666666666667</ele><time>2026-04-09T12:34:49Z</time></trkpt><trkpt lat="43.14626052982384" lon="12.299620386218782"><ele>287.5</ele><time>2026-04-09T12:34:52Z</time></trkpt><trkpt lat="43.14633041786724" lon="12.299601160148514"><ele>285.33333333333337</ele><time>2026-04-09T12:34:54Z</time></trkpt><trkpt lat="43.14641342006605" lon="12.299586238420975"><ele>283.1666666666667</ele><time>2026-04-09T12:34:57Z</time></trkpt><trkpt lat="43.146493056025854" lon="12.299561895805294"><ele>281.0</ele><time>2026-04-09T12:35:00Z</time></trkpt><trkpt lat="43.14654425838748" lon="12.299463456621195"><ele>281.0</ele><time>2026-04-09T12:35:03Z</time></trkpt><trkpt lat="43.14661321690715" lon="12.299411097960803"><ele>281.0</ele><time>2026-04-09T12:35:05Z</time></trkpt><trkpt lat="43.14668368200629" lon="12.299359292515497"><ele>281.0</ele><time>2026-04-09T12:35:07Z</time></trkpt><trkpt lat="43.14674146484508" lon="12.299299070953412"><ele>281.0</ele><time>2026-04-09T12:35:09Z</time></trkpt><trkpt lat="43.14685008969822" lon="12.299246650337643"><ele>281.0</ele><time>2026-04-09T12:35:11Z</time></trkpt><trkpt lat="43.14692633738361" lon="12.299186622117347"><ele>281.0</ele><time>2026-04-09T12:35:14Z</time></trkpt><trkpt lat="43.14701031924579" lon="12.299198030712072"><ele>281.0</ele><time>2026-04-09T12:35:16Z</time></trkpt><trkpt lat="43.14708002028938" lon="12.299273007923436"><ele>281.0</ele><time>2026-04-09T12:35:18Z</time></trkpt><trkpt lat="43.147153275567646" lon="12.299359773935883"><ele>281.0</ele><time>2026-04-09T12:35:20Z</time></trkpt><trkpt lat="43.14723767479621" lon="12.299427902832765"><ele>281.0</ele><time>2026-04-09T12:35:22Z</time></trkpt><trkpt lat="43.14728989229812" lon="12.299519509602089"><ele>281.0</ele><time>2026-04-09T12:35:38Z</time></trkpt><trkpt lat="43.147368125447414" lon="12.299539700215123"><ele>281.0</ele><time>2026-04-09T12:35:42Z</time></trkpt><trkpt lat="43.14745270240453" lon="12.299530324257857"><ele>280.1666666666667</ele><time>2026-04-09T12:35:44Z</time></trkpt><trkpt lat="43.147553311659145" lon="12.299516099533275"><ele>279.33333333333337</ele><time>2026-04-09T12:35:46Z</time></trkpt><trkpt lat="43.14762307507275" lon="12.299512105933227"><ele>278.5</ele><time>2026-04-09T12:35:47Z</time></trkpt><trkpt lat="43.147689699150014" lon="12.299509921183267"><ele>277.6666666666667</ele><time>2026-04-09T12:35:48Z</time></trkpt><trkpt lat="43.14777091903525" lon="12.299510703364007"><ele>276.8333333333333</ele><time>2026-04-09T12:35:49Z</time></trkpt><trkpt lat="43.14786102652956" lon="12.299526899735673"><ele>276.0</ele><time>2026-04-09T12:35:50Z</time></trkpt><trkpt lat="43.147940274007325" lon="12.299521116453453"><ele>276.0</ele><time>2026-04-09T12:35:51Z</time></trkpt><trkpt lat="43.148024548221066" lon="12.299514966339018"><ele>276.0</ele><time>2026-04-09T12:35:52Z</time></trkpt><trkpt lat="43.148113965918235" lon="12.299506283091295"><ele>276.0</ele><time>2026-04-09T12:35:53Z</time></trkpt><trkpt lat="43.14818374942546" lon="12.299479607958594"><ele>276.0</ele><time>2026-04-09T12:35:54Z</time></trkpt><trkpt lat="43.148300746135064" lon="12.299471531661439"><ele>276.0</ele><time>2026-04-09T12:35:56Z</time></trkpt><trkpt lat="43.14837041083599" lon="12.299441928215279"><ele>276.0</ele><time>2026-04-09T12:35:57Z</time></trkpt><trkpt lat="43.14848790893503" lon="12.299412831325052"><ele>275.3333333333333</ele><time>2026-04-09T12:35:59Z</time></trkpt><trkpt lat="43.148553337596056" lon="12.299357791915092"><ele>274.6666666666667</ele><time>2026-04-09T12:36:00Z</time></trkpt><trkpt lat="43.14861658713221" lon="12.29929304170294"><ele>274.0</ele><time>2026-04-09T12:36:01Z</time></trkpt><trkpt lat="43.148678307638434" lon="12.299227791778792"><ele>273.33333333333337</ele><time>2026-04-09T12:36:02Z</time></trkpt><trkpt lat="43.14874250735636" lon="12.299187390351795"><ele>272.6666666666667</ele><time>2026-04-09T12:36:03Z</time></trkpt><trkpt lat="43.14883737903007" lon="12.299080747487626"><ele>272.0</ele><time>2026-04-09T12:36:05Z</time></trkpt><trkpt lat="43.148899878975705" lon="12.29900304555761"><ele>271.1666666666667</ele><time>2026-04-09T12:36:06Z</time></trkpt><trkpt lat="43.148961689652296" lon="12.2989171890625"><ele>270.33333333333337</ele><time>2026-04-09T12:36:07Z</time></trkpt><trkpt lat="43.149012785320274" lon="12.298826991612396"><ele>269.5</ele><time>2026-04-09T12:36:08Z</time></trkpt><trkpt lat="43.14905087502326" lon="12.298719850694594"><ele>268.6666666666667</ele><time>2026-04-09T12:36:09Z</time></trkpt><trkpt lat="43.14910391029376" lon="12.29862908260528"><ele>267.8333333333333</ele><time>2026-04-09T12:36:10Z</time></trkpt><trkpt lat="43.14918554481771" lon="12.298566468125623"><ele>267.0</ele><time>2026-04-09T12:36:11Z</time></trkpt><trkpt lat="43.149250832544446" lon="12.298473007219245"><ele>266.0</ele><time>2026-04-09T12:36:12Z</time></trkpt><trkpt lat="43.14930680909341" lon="12.298369413940954"><ele>265.0</ele><time>2026-04-09T12:36:13Z</time></trkpt><trkpt lat="43.149355100289604" lon="12.298268517723333"><ele>264.0</ele><time>2026-04-09T12:36:14Z</time></trkpt><trkpt lat="43.149402930635254" lon="12.298166000050736"><ele>263.0</ele><time>2026-04-09T12:36:15Z</time></trkpt><trkpt lat="43.149451395058655" lon="12.298057527242538"><ele>262.0</ele><time>2026-04-09T12:36:16Z</time></trkpt><trkpt lat="43.14949817059146" lon="12.297949885354093"><ele>260.8</ele><time>2026-04-09T12:36:17Z</time></trkpt><trkpt lat="43.14954442822318" lon="12.297843435259484"><ele>259.6</ele><time>2026-04-09T12:36:18Z</time></trkpt><trkpt lat="43.14959296985344" lon="12.297730107163082"><ele>258.40000000000003</ele><time>2026-04-09T12:36:19Z</time></trkpt><trkpt lat="43.149637451756774" lon="12.297623685080305"><ele>257.2</ele><time>2026-04-09T12:36:20Z</time></trkpt><trkpt lat="43.149684724576865" lon="12.297510586122996"><ele>256.0</ele><time>2026-04-09T12:36:21Z</time></trkpt><trkpt lat="43.14973337072801" lon="12.29740199718867"><ele>256.0</ele><time>2026-04-09T12:36:22Z</time></trkpt><trkpt lat="43.14977684101279" lon="12.297285952401687"><ele>256.0</ele><time>2026-04-09T12:36:23Z</time></trkpt><trkpt lat="43.149834844561155" lon="12.29719186541531"><ele>256.0</ele><time>2026-04-09T12:36:24Z</time></trkpt><trkpt lat="43.14989240576462" lon="12.297089435547207"><ele>256.0</ele><time>2026-04-09T12:36:25Z</time></trkpt><trkpt lat="43.149952885144344" lon="12.296987805705381"><ele>256.0</ele><time>2026-04-09T12:36:26Z</time></trkpt><trkpt lat="43.15002297522442" lon="12.296908658225712"><ele>255.0</ele><time>2026-04-09T12:36:27Z</time></trkpt><trkpt lat="43.15009037848718" lon="12.29682502573923"><ele>255.0</ele><time>2026-04-09T12:36:28Z</time></trkpt><trkpt lat="43.15014861071951" lon="12.296754804524108"><ele>255.0</ele><time>2026-04-09T12:36:29Z</time></trkpt><trkpt lat="43.15020791759835" lon="12.296678276177138"><ele>255.0</ele><time>2026-04-09T12:36:31Z</time></trkpt><trkpt lat="43.15027406701337" lon="12.296577825818547"><ele>255.0</ele><time>2026-04-09T12:36:33Z</time></trkpt><trkpt lat="43.150321973820084" lon="12.296512306973435"><ele>255.0</ele><time>2026-04-09T12:36:35Z</time></trkpt></trkseg></trk></gpx>